<?xml version="1.0" encoding="UTF-8" standalone="no" ?>
<gpx xmlns="http://www.topografix.com/GPX/1/1" xmlns:xsi="http://www.w3.org/2001/XMLSchema-instance" xsi:schemaLocation="http://www.topografix.com/GPX/1/1 http://www.topografix.com/GPX/1/1/gpx.xsd" version="1.1" creator="VisuGPX - https://www.visugpx.com">
  <metadata>
    <name>Crozon, la Montagne d\'Argol</name>
    <desc><![CDATA[Crozon, la Montagne d\'Argol.]]></desc>
  </metadata>
  <trk>
    <name><![CDATA[AVR-17-13 17:00:34]]></name>
    <trkseg>
      <trkpt lat="48.24604" lon="-4.31666">
        <ele>71.27</ele>
        <time>2013-04-17T13:07:18Z</time>
      </trkpt>
      <trkpt lat="48.24597" lon="-4.31677">
        <ele>70.31</ele>
        <time>2013-04-17T13:07:50Z</time>
      </trkpt>
      <trkpt lat="48.24598" lon="-4.31677">
        <ele>72.24</ele>
        <time>2013-04-17T13:07:59Z</time>
      </trkpt>
      <trkpt lat="48.24597" lon="-4.31675">
        <ele>72.24</ele>
        <time>2013-04-17T13:08:25Z</time>
      </trkpt>
      <trkpt lat="48.24599" lon="-4.31677">
        <ele>71.27</ele>
        <time>2013-04-17T13:08:39Z</time>
      </trkpt>
      <trkpt lat="48.24608" lon="-4.31684">
        <ele>72.24</ele>
        <time>2013-04-17T13:08:55Z</time>
      </trkpt>
      <trkpt lat="48.24614" lon="-4.31686">
        <ele>71.76</ele>
        <time>2013-04-17T13:09:09Z</time>
      </trkpt>
      <trkpt lat="48.24614" lon="-4.31687">
        <ele>72.24</ele>
        <time>2013-04-17T13:09:35Z</time>
      </trkpt>
      <trkpt lat="48.24612" lon="-4.31687">
        <ele>71.27</ele>
        <time>2013-04-17T13:09:37Z</time>
      </trkpt>
      <trkpt lat="48.24606" lon="-4.31684">
        <ele>71.76</ele>
        <time>2013-04-17T13:09:52Z</time>
      </trkpt>
      <trkpt lat="48.24602" lon="-4.31681">
        <ele>71.76</ele>
        <time>2013-04-17T13:10:10Z</time>
      </trkpt>
      <trkpt lat="48.24588" lon="-4.31669">
        <ele>70.79</ele>
        <time>2013-04-17T13:10:24Z</time>
      </trkpt>
      <trkpt lat="48.24568" lon="-4.31659">
        <ele>71.76</ele>
        <time>2013-04-17T13:10:41Z</time>
      </trkpt>
      <trkpt lat="48.24546" lon="-4.31645">
        <ele>72.24</ele>
        <time>2013-04-17T13:11:00Z</time>
      </trkpt>
      <trkpt lat="48.24526" lon="-4.31634">
        <ele>71.27</ele>
        <time>2013-04-17T13:11:18Z</time>
      </trkpt>
      <trkpt lat="48.24523" lon="-4.31632">
        <ele>71.27</ele>
        <time>2013-04-17T13:11:21Z</time>
      </trkpt>
      <trkpt lat="48.24503" lon="-4.31628">
        <ele>71.76</ele>
        <time>2013-04-17T13:11:37Z</time>
      </trkpt>
      <trkpt lat="48.24483" lon="-4.31623">
        <ele>72.72</ele>
        <time>2013-04-17T13:11:52Z</time>
      </trkpt>
      <trkpt lat="48.24476" lon="-4.31622">
        <ele>68.39</ele>
        <time>2013-04-17T13:11:57Z</time>
      </trkpt>
      <trkpt lat="48.24475" lon="-4.31622">
        <ele>71.76</ele>
        <time>2013-04-17T13:11:58Z</time>
      </trkpt>
      <trkpt lat="48.24454" lon="-4.31617">
        <ele>73.68</ele>
        <time>2013-04-17T13:12:14Z</time>
      </trkpt>
      <trkpt lat="48.2444" lon="-4.31613">
        <ele>73.68</ele>
        <time>2013-04-17T13:12:25Z</time>
      </trkpt>
      <trkpt lat="48.24434" lon="-4.31611">
        <ele>74.16</ele>
        <time>2013-04-17T13:12:30Z</time>
      </trkpt>
      <trkpt lat="48.24434" lon="-4.31603">
        <ele>73.68</ele>
        <time>2013-04-17T13:12:34Z</time>
      </trkpt>
      <trkpt lat="48.24439" lon="-4.31568">
        <ele>74.16</ele>
        <time>2013-04-17T13:12:52Z</time>
      </trkpt>
      <trkpt lat="48.24437" lon="-4.31534">
        <ele>72.72</ele>
        <time>2013-04-17T13:13:09Z</time>
      </trkpt>
      <trkpt lat="48.24436" lon="-4.31496">
        <ele>74.16</ele>
        <time>2013-04-17T13:13:28Z</time>
      </trkpt>
      <trkpt lat="48.24435" lon="-4.31481">
        <ele>72.72</ele>
        <time>2013-04-17T13:13:36Z</time>
      </trkpt>
      <trkpt lat="48.24434" lon="-4.31473">
        <ele>72.24</ele>
        <time>2013-04-17T13:13:40Z</time>
      </trkpt>
      <trkpt lat="48.24432" lon="-4.31444">
        <ele>72.72</ele>
        <time>2013-04-17T13:13:54Z</time>
      </trkpt>
      <trkpt lat="48.24429" lon="-4.31403">
        <ele>71.76</ele>
        <time>2013-04-17T13:14:14Z</time>
      </trkpt>
      <trkpt lat="48.24427" lon="-4.31367">
        <ele>71.76</ele>
        <time>2013-04-17T13:14:32Z</time>
      </trkpt>
      <trkpt lat="48.24426" lon="-4.31364">
        <ele>71.76</ele>
        <time>2013-04-17T13:14:34Z</time>
      </trkpt>
      <trkpt lat="48.24429" lon="-4.31355">
        <ele>71.76</ele>
        <time>2013-04-17T13:14:39Z</time>
      </trkpt>
      <trkpt lat="48.24429" lon="-4.31333">
        <ele>71.76</ele>
        <time>2013-04-17T13:14:49Z</time>
      </trkpt>
      <trkpt lat="48.24426" lon="-4.31299">
        <ele>71.27</ele>
        <time>2013-04-17T13:15:06Z</time>
      </trkpt>
      <trkpt lat="48.24424" lon="-4.31289">
        <ele>74.64</ele>
        <time>2013-04-17T13:15:11Z</time>
      </trkpt>
      <trkpt lat="48.24424" lon="-4.31287">
        <ele>70.79</ele>
        <time>2013-04-17T13:15:12Z</time>
      </trkpt>
      <trkpt lat="48.24424" lon="-4.31283">
        <ele>71.27</ele>
        <time>2013-04-17T13:15:14Z</time>
      </trkpt>
      <trkpt lat="48.24422" lon="-4.31269">
        <ele>76.08</ele>
        <time>2013-04-17T13:15:22Z</time>
      </trkpt>
      <trkpt lat="48.24423" lon="-4.31265">
        <ele>72.24</ele>
        <time>2013-04-17T13:15:24Z</time>
      </trkpt>
      <trkpt lat="48.24423" lon="-4.31249">
        <ele>69.35</ele>
        <time>2013-04-17T13:15:32Z</time>
      </trkpt>
      <trkpt lat="48.24423" lon="-4.31247">
        <ele>69.83</ele>
        <time>2013-04-17T13:15:33Z</time>
      </trkpt>
      <trkpt lat="48.24423" lon="-4.31245">
        <ele>73.68</ele>
        <time>2013-04-17T13:15:34Z</time>
      </trkpt>
      <trkpt lat="48.24423" lon="-4.31243">
        <ele>70.79</ele>
        <time>2013-04-17T13:15:35Z</time>
      </trkpt>
      <trkpt lat="48.2442" lon="-4.31205">
        <ele>70.79</ele>
        <time>2013-04-17T13:15:54Z</time>
      </trkpt>
      <trkpt lat="48.24421" lon="-4.31193">
        <ele>70.31</ele>
        <time>2013-04-17T13:15:59Z</time>
      </trkpt>
      <trkpt lat="48.24419" lon="-4.3116">
        <ele>69.83</ele>
        <time>2013-04-17T13:16:17Z</time>
      </trkpt>
      <trkpt lat="48.24414" lon="-4.3113">
        <ele>67.91</ele>
        <time>2013-04-17T13:16:34Z</time>
      </trkpt>
      <trkpt lat="48.24412" lon="-4.31127">
        <ele>68.87</ele>
        <time>2013-04-17T13:16:36Z</time>
      </trkpt>
      <trkpt lat="48.24405" lon="-4.31123">
        <ele>70.31</ele>
        <time>2013-04-17T13:16:43Z</time>
      </trkpt>
      <trkpt lat="48.24401" lon="-4.31121">
        <ele>70.79</ele>
        <time>2013-04-17T13:16:47Z</time>
      </trkpt>
      <trkpt lat="48.24384" lon="-4.31116">
        <ele>70.79</ele>
        <time>2013-04-17T13:17:02Z</time>
      </trkpt>
      <trkpt lat="48.24381" lon="-4.31115">
        <ele>71.76</ele>
        <time>2013-04-17T13:17:05Z</time>
      </trkpt>
      <trkpt lat="48.24378" lon="-4.31113">
        <ele>72.24</ele>
        <time>2013-04-17T13:17:08Z</time>
      </trkpt>
      <trkpt lat="48.24372" lon="-4.31112">
        <ele>72.24</ele>
        <time>2013-04-17T13:17:13Z</time>
      </trkpt>
      <trkpt lat="48.24368" lon="-4.31112">
        <ele>73.2</ele>
        <time>2013-04-17T13:17:17Z</time>
      </trkpt>
      <trkpt lat="48.24362" lon="-4.31111">
        <ele>74.16</ele>
        <time>2013-04-17T13:17:22Z</time>
      </trkpt>
      <trkpt lat="48.2436" lon="-4.31112">
        <ele>74.64</ele>
        <time>2013-04-17T13:17:24Z</time>
      </trkpt>
      <trkpt lat="48.24355" lon="-4.31113">
        <ele>75.12</ele>
        <time>2013-04-17T13:17:29Z</time>
      </trkpt>
      <trkpt lat="48.24341" lon="-4.31126">
        <ele>75.6</ele>
        <time>2013-04-17T13:17:44Z</time>
      </trkpt>
      <trkpt lat="48.24328" lon="-4.31141">
        <ele>77.52</ele>
        <time>2013-04-17T13:17:58Z</time>
      </trkpt>
      <trkpt lat="48.24316" lon="-4.31151">
        <ele>78.97</ele>
        <time>2013-04-17T13:18:10Z</time>
      </trkpt>
      <trkpt lat="48.243" lon="-4.31163">
        <ele>79.93</ele>
        <time>2013-04-17T13:18:24Z</time>
      </trkpt>
      <trkpt lat="48.24293" lon="-4.31168">
        <ele>79.93</ele>
        <time>2013-04-17T13:18:29Z</time>
      </trkpt>
      <trkpt lat="48.24289" lon="-4.31171">
        <ele>80.89</ele>
        <time>2013-04-17T13:18:33Z</time>
      </trkpt>
      <trkpt lat="48.2427" lon="-4.31184">
        <ele>80.89</ele>
        <time>2013-04-17T13:18:49Z</time>
      </trkpt>
      <trkpt lat="48.24252" lon="-4.31185">
        <ele>81.85</ele>
        <time>2013-04-17T13:19:05Z</time>
      </trkpt>
      <trkpt lat="48.24236" lon="-4.31183">
        <ele>82.81</ele>
        <time>2013-04-17T13:19:19Z</time>
      </trkpt>
      <trkpt lat="48.24225" lon="-4.31181">
        <ele>82.81</ele>
        <time>2013-04-17T13:19:28Z</time>
      </trkpt>
      <trkpt lat="48.24222" lon="-4.3118">
        <ele>83.77</ele>
        <time>2013-04-17T13:19:30Z</time>
      </trkpt>
      <trkpt lat="48.24213" lon="-4.31178">
        <ele>83.77</ele>
        <time>2013-04-17T13:19:37Z</time>
      </trkpt>
      <trkpt lat="48.24207" lon="-4.31177">
        <ele>84.25</ele>
        <time>2013-04-17T13:19:41Z</time>
      </trkpt>
      <trkpt lat="48.24188" lon="-4.31171">
        <ele>85.69</ele>
        <time>2013-04-17T13:19:58Z</time>
      </trkpt>
      <trkpt lat="48.24171" lon="-4.31163">
        <ele>86.66</ele>
        <time>2013-04-17T13:20:13Z</time>
      </trkpt>
      <trkpt lat="48.24168" lon="-4.31161">
        <ele>87.14</ele>
        <time>2013-04-17T13:20:15Z</time>
      </trkpt>
      <trkpt lat="48.24149" lon="-4.3115">
        <ele>88.1</ele>
        <time>2013-04-17T13:20:30Z</time>
      </trkpt>
      <trkpt lat="48.24132" lon="-4.31141">
        <ele>89.06</ele>
        <time>2013-04-17T13:20:46Z</time>
      </trkpt>
      <trkpt lat="48.24121" lon="-4.31135">
        <ele>90.02</ele>
        <time>2013-04-17T13:20:57Z</time>
      </trkpt>
      <trkpt lat="48.24104" lon="-4.31127">
        <ele>90.98</ele>
        <time>2013-04-17T13:21:09Z</time>
      </trkpt>
      <trkpt lat="48.24089" lon="-4.31117">
        <ele>91.46</ele>
        <time>2013-04-17T13:21:23Z</time>
      </trkpt>
      <trkpt lat="48.24073" lon="-4.31106">
        <ele>92.9</ele>
        <time>2013-04-17T13:21:37Z</time>
      </trkpt>
      <trkpt lat="48.24053" lon="-4.31103">
        <ele>92.42</ele>
        <time>2013-04-17T13:21:51Z</time>
      </trkpt>
      <trkpt lat="48.24046" lon="-4.31102">
        <ele>92.9</ele>
        <time>2013-04-17T13:21:56Z</time>
      </trkpt>
      <trkpt lat="48.2404" lon="-4.311">
        <ele>92.9</ele>
        <time>2013-04-17T13:22:01Z</time>
      </trkpt>
      <trkpt lat="48.24012" lon="-4.31107">
        <ele>94.35</ele>
        <time>2013-04-17T13:22:24Z</time>
      </trkpt>
      <trkpt lat="48.24003" lon="-4.31109">
        <ele>95.79</ele>
        <time>2013-04-17T13:22:32Z</time>
      </trkpt>
      <trkpt lat="48.23992" lon="-4.31108">
        <ele>97.23</ele>
        <time>2013-04-17T13:22:40Z</time>
      </trkpt>
      <trkpt lat="48.23981" lon="-4.31112">
        <ele>96.75</ele>
        <time>2013-04-17T13:22:48Z</time>
      </trkpt>
      <trkpt lat="48.23976" lon="-4.31112">
        <ele>96.75</ele>
        <time>2013-04-17T13:22:52Z</time>
      </trkpt>
      <trkpt lat="48.23971" lon="-4.31111">
        <ele>97.23</ele>
        <time>2013-04-17T13:22:56Z</time>
      </trkpt>
      <trkpt lat="48.23948" lon="-4.31121">
        <ele>98.67</ele>
        <time>2013-04-17T13:23:15Z</time>
      </trkpt>
      <trkpt lat="48.23945" lon="-4.31122">
        <ele>98.67</ele>
        <time>2013-04-17T13:23:17Z</time>
      </trkpt>
      <trkpt lat="48.23934" lon="-4.31124">
        <ele>99.15</ele>
        <time>2013-04-17T13:23:25Z</time>
      </trkpt>
      <trkpt lat="48.23913" lon="-4.31135">
        <ele>99.15</ele>
        <time>2013-04-17T13:23:41Z</time>
      </trkpt>
      <trkpt lat="48.23906" lon="-4.31139">
        <ele>100.6</ele>
        <time>2013-04-17T13:23:46Z</time>
      </trkpt>
      <trkpt lat="48.23898" lon="-4.31143">
        <ele>99.15</ele>
        <time>2013-04-17T13:23:53Z</time>
      </trkpt>
      <trkpt lat="48.23879" lon="-4.31153">
        <ele>100.11</ele>
        <time>2013-04-17T13:24:10Z</time>
      </trkpt>
      <trkpt lat="48.23879" lon="-4.31152">
        <ele>102.04</ele>
        <time>2013-04-17T13:24:24Z</time>
      </trkpt>
      <trkpt lat="48.23878" lon="-4.31145">
        <ele>101.56</ele>
        <time>2013-04-17T13:24:29Z</time>
      </trkpt>
      <trkpt lat="48.2388" lon="-4.31133">
        <ele>101.56</ele>
        <time>2013-04-17T13:24:36Z</time>
      </trkpt>
      <trkpt lat="48.23886" lon="-4.31115">
        <ele>102.04</ele>
        <time>2013-04-17T13:24:46Z</time>
      </trkpt>
      <trkpt lat="48.23896" lon="-4.31084">
        <ele>102.04</ele>
        <time>2013-04-17T13:25:02Z</time>
      </trkpt>
      <trkpt lat="48.23902" lon="-4.31068">
        <ele>102.04</ele>
        <time>2013-04-17T13:25:11Z</time>
      </trkpt>
      <trkpt lat="48.23903" lon="-4.31059">
        <ele>102.52</ele>
        <time>2013-04-17T13:25:15Z</time>
      </trkpt>
      <trkpt lat="48.23906" lon="-4.3105">
        <ele>102.04</ele>
        <time>2013-04-17T13:25:20Z</time>
      </trkpt>
      <trkpt lat="48.23914" lon="-4.31023">
        <ele>101.56</ele>
        <time>2013-04-17T13:25:35Z</time>
      </trkpt>
      <trkpt lat="48.23922" lon="-4.31001">
        <ele>102.04</ele>
        <time>2013-04-17T13:25:48Z</time>
      </trkpt>
      <trkpt lat="48.23922" lon="-4.30998">
        <ele>101.56</ele>
        <time>2013-04-17T13:25:50Z</time>
      </trkpt>
      <trkpt lat="48.2393" lon="-4.30971">
        <ele>102.04</ele>
        <time>2013-04-17T13:26:05Z</time>
      </trkpt>
      <trkpt lat="48.23938" lon="-4.30938">
        <ele>101.08</ele>
        <time>2013-04-17T13:26:22Z</time>
      </trkpt>
      <trkpt lat="48.23946" lon="-4.30901">
        <ele>101.08</ele>
        <time>2013-04-17T13:26:41Z</time>
      </trkpt>
      <trkpt lat="48.23957" lon="-4.30864">
        <ele>101.08</ele>
        <time>2013-04-17T13:26:59Z</time>
      </trkpt>
      <trkpt lat="48.23958" lon="-4.30853">
        <ele>102.04</ele>
        <time>2013-04-17T13:27:05Z</time>
      </trkpt>
      <trkpt lat="48.23959" lon="-4.3085">
        <ele>98.67</ele>
        <time>2013-04-17T13:27:07Z</time>
      </trkpt>
      <trkpt lat="48.2396" lon="-4.30842">
        <ele>101.56</ele>
        <time>2013-04-17T13:27:11Z</time>
      </trkpt>
      <trkpt lat="48.2396" lon="-4.3084">
        <ele>99.63</ele>
        <time>2013-04-17T13:27:12Z</time>
      </trkpt>
      <trkpt lat="48.23962" lon="-4.30833">
        <ele>93.87</ele>
        <time>2013-04-17T13:27:16Z</time>
      </trkpt>
      <trkpt lat="48.23962" lon="-4.30831">
        <ele>100.11</ele>
        <time>2013-04-17T13:27:17Z</time>
      </trkpt>
      <trkpt lat="48.23963" lon="-4.30825">
        <ele>101.56</ele>
        <time>2013-04-17T13:27:20Z</time>
      </trkpt>
      <trkpt lat="48.23972" lon="-4.3079">
        <ele>97.71</ele>
        <time>2013-04-17T13:27:39Z</time>
      </trkpt>
      <trkpt lat="48.23976" lon="-4.30771">
        <ele>103</ele>
        <time>2013-04-17T13:27:50Z</time>
      </trkpt>
      <trkpt lat="48.23977" lon="-4.30767">
        <ele>99.63</ele>
        <time>2013-04-17T13:27:52Z</time>
      </trkpt>
      <trkpt lat="48.23978" lon="-4.30763">
        <ele>103.48</ele>
        <time>2013-04-17T13:27:54Z</time>
      </trkpt>
      <trkpt lat="48.23978" lon="-4.30762">
        <ele>101.08</ele>
        <time>2013-04-17T13:27:55Z</time>
      </trkpt>
      <trkpt lat="48.23979" lon="-4.30753">
        <ele>97.71</ele>
        <time>2013-04-17T13:28:00Z</time>
      </trkpt>
      <trkpt lat="48.23986" lon="-4.30717">
        <ele>97.71</ele>
        <time>2013-04-17T13:28:19Z</time>
      </trkpt>
      <trkpt lat="48.23989" lon="-4.30705">
        <ele>100.11</ele>
        <time>2013-04-17T13:28:26Z</time>
      </trkpt>
      <trkpt lat="48.23991" lon="-4.30696">
        <ele>95.31</ele>
        <time>2013-04-17T13:28:31Z</time>
      </trkpt>
      <trkpt lat="48.23991" lon="-4.30694">
        <ele>99.15</ele>
        <time>2013-04-17T13:28:32Z</time>
      </trkpt>
      <trkpt lat="48.23995" lon="-4.30672">
        <ele>98.67</ele>
        <time>2013-04-17T13:28:44Z</time>
      </trkpt>
      <trkpt lat="48.23996" lon="-4.30665">
        <ele>97.71</ele>
        <time>2013-04-17T13:28:48Z</time>
      </trkpt>
      <trkpt lat="48.24003" lon="-4.30634">
        <ele>98.67</ele>
        <time>2013-04-17T13:29:05Z</time>
      </trkpt>
      <trkpt lat="48.24006" lon="-4.30614">
        <ele>98.67</ele>
        <time>2013-04-17T13:29:14Z</time>
      </trkpt>
      <trkpt lat="48.24008" lon="-4.30608">
        <ele>98.67</ele>
        <time>2013-04-17T13:29:17Z</time>
      </trkpt>
      <trkpt lat="48.24013" lon="-4.30585">
        <ele>96.27</ele>
        <time>2013-04-17T13:29:30Z</time>
      </trkpt>
      <trkpt lat="48.24013" lon="-4.30582">
        <ele>97.71</ele>
        <time>2013-04-17T13:29:32Z</time>
      </trkpt>
      <trkpt lat="48.24013" lon="-4.30579">
        <ele>97.71</ele>
        <time>2013-04-17T13:29:33Z</time>
      </trkpt>
      <trkpt lat="48.24014" lon="-4.30569">
        <ele>97.71</ele>
        <time>2013-04-17T13:29:39Z</time>
      </trkpt>
      <trkpt lat="48.24018" lon="-4.30543">
        <ele>97.71</ele>
        <time>2013-04-17T13:29:53Z</time>
      </trkpt>
      <trkpt lat="48.24023" lon="-4.30525">
        <ele>98.67</ele>
        <time>2013-04-17T13:30:02Z</time>
      </trkpt>
      <trkpt lat="48.24026" lon="-4.30517">
        <ele>98.19</ele>
        <time>2013-04-17T13:30:06Z</time>
      </trkpt>
      <trkpt lat="48.24033" lon="-4.30501">
        <ele>97.71</ele>
        <time>2013-04-17T13:30:15Z</time>
      </trkpt>
      <trkpt lat="48.24042" lon="-4.30476">
        <ele>97.23</ele>
        <time>2013-04-17T13:30:29Z</time>
      </trkpt>
      <trkpt lat="48.2405" lon="-4.30454">
        <ele>97.71</ele>
        <time>2013-04-17T13:30:41Z</time>
      </trkpt>
      <trkpt lat="48.24053" lon="-4.30444">
        <ele>97.23</ele>
        <time>2013-04-17T13:30:46Z</time>
      </trkpt>
      <trkpt lat="48.24056" lon="-4.30434">
        <ele>97.23</ele>
        <time>2013-04-17T13:30:52Z</time>
      </trkpt>
      <trkpt lat="48.24064" lon="-4.30421">
        <ele>97.23</ele>
        <time>2013-04-17T13:31:00Z</time>
      </trkpt>
      <trkpt lat="48.24068" lon="-4.30409">
        <ele>97.23</ele>
        <time>2013-04-17T13:31:07Z</time>
      </trkpt>
      <trkpt lat="48.24067" lon="-4.30401">
        <ele>97.71</ele>
        <time>2013-04-17T13:31:11Z</time>
      </trkpt>
      <trkpt lat="48.24051" lon="-4.30386">
        <ele>99.15</ele>
        <time>2013-04-17T13:31:26Z</time>
      </trkpt>
      <trkpt lat="48.2404" lon="-4.30374">
        <ele>99.15</ele>
        <time>2013-04-17T13:31:38Z</time>
      </trkpt>
      <trkpt lat="48.24035" lon="-4.3037">
        <ele>99.63</ele>
        <time>2013-04-17T13:31:42Z</time>
      </trkpt>
      <trkpt lat="48.24031" lon="-4.30363">
        <ele>100.11</ele>
        <time>2013-04-17T13:31:47Z</time>
      </trkpt>
      <trkpt lat="48.24027" lon="-4.30359">
        <ele>100.6</ele>
        <time>2013-04-17T13:31:50Z</time>
      </trkpt>
      <trkpt lat="48.24008" lon="-4.30345">
        <ele>102.04</ele>
        <time>2013-04-17T13:32:06Z</time>
      </trkpt>
      <trkpt lat="48.24005" lon="-4.30343">
        <ele>102.04</ele>
        <time>2013-04-17T13:32:09Z</time>
      </trkpt>
      <trkpt lat="48.23998" lon="-4.30339">
        <ele>102.52</ele>
        <time>2013-04-17T13:32:16Z</time>
      </trkpt>
      <trkpt lat="48.2399" lon="-4.30333">
        <ele>103.96</ele>
        <time>2013-04-17T13:32:23Z</time>
      </trkpt>
      <trkpt lat="48.23986" lon="-4.3033">
        <ele>104.44</ele>
        <time>2013-04-17T13:32:27Z</time>
      </trkpt>
      <trkpt lat="48.23975" lon="-4.3032">
        <ele>104.92</ele>
        <time>2013-04-17T13:32:38Z</time>
      </trkpt>
      <trkpt lat="48.23962" lon="-4.30311">
        <ele>105.88</ele>
        <time>2013-04-17T13:32:50Z</time>
      </trkpt>
      <trkpt lat="48.23957" lon="-4.30306">
        <ele>106.36</ele>
        <time>2013-04-17T13:32:54Z</time>
      </trkpt>
      <trkpt lat="48.23943" lon="-4.30294">
        <ele>107.81</ele>
        <time>2013-04-17T13:33:06Z</time>
      </trkpt>
      <trkpt lat="48.23933" lon="-4.3029">
        <ele>108.77</ele>
        <time>2013-04-17T13:33:19Z</time>
      </trkpt>
      <trkpt lat="48.23921" lon="-4.30276">
        <ele>109.73</ele>
        <time>2013-04-17T13:33:35Z</time>
      </trkpt>
      <trkpt lat="48.2391" lon="-4.30264">
        <ele>110.69</ele>
        <time>2013-04-17T13:33:49Z</time>
      </trkpt>
      <trkpt lat="48.23902" lon="-4.30254">
        <ele>111.17</ele>
        <time>2013-04-17T13:33:58Z</time>
      </trkpt>
      <trkpt lat="48.23886" lon="-4.30242">
        <ele>112.13</ele>
        <time>2013-04-17T13:34:11Z</time>
      </trkpt>
      <trkpt lat="48.23872" lon="-4.30231">
        <ele>114.05</ele>
        <time>2013-04-17T13:34:22Z</time>
      </trkpt>
      <trkpt lat="48.23861" lon="-4.30226">
        <ele>114.53</ele>
        <time>2013-04-17T13:34:31Z</time>
      </trkpt>
      <trkpt lat="48.23844" lon="-4.30212">
        <ele>115.01</ele>
        <time>2013-04-17T13:34:43Z</time>
      </trkpt>
      <trkpt lat="48.23837" lon="-4.30209">
        <ele>115.5</ele>
        <time>2013-04-17T13:34:50Z</time>
      </trkpt>
      <trkpt lat="48.2382" lon="-4.30194">
        <ele>116.94</ele>
        <time>2013-04-17T13:35:04Z</time>
      </trkpt>
      <trkpt lat="48.23819" lon="-4.30193">
        <ele>116.94</ele>
        <time>2013-04-17T13:35:05Z</time>
      </trkpt>
      <trkpt lat="48.23798" lon="-4.30179">
        <ele>117.42</ele>
        <time>2013-04-17T13:35:20Z</time>
      </trkpt>
      <trkpt lat="48.2378" lon="-4.30164">
        <ele>117.9</ele>
        <time>2013-04-17T13:35:34Z</time>
      </trkpt>
      <trkpt lat="48.23764" lon="-4.30155">
        <ele>119.34</ele>
        <time>2013-04-17T13:35:47Z</time>
      </trkpt>
      <trkpt lat="48.23753" lon="-4.30146">
        <ele>119.34</ele>
        <time>2013-04-17T13:36:00Z</time>
      </trkpt>
      <trkpt lat="48.23746" lon="-4.30141">
        <ele>119.82</ele>
        <time>2013-04-17T13:36:06Z</time>
      </trkpt>
      <trkpt lat="48.23744" lon="-4.30139">
        <ele>119.82</ele>
        <time>2013-04-17T13:36:08Z</time>
      </trkpt>
      <trkpt lat="48.23729" lon="-4.30132">
        <ele>121.74</ele>
        <time>2013-04-17T13:36:23Z</time>
      </trkpt>
      <trkpt lat="48.23717" lon="-4.3012">
        <ele>122.22</ele>
        <time>2013-04-17T13:36:34Z</time>
      </trkpt>
      <trkpt lat="48.23703" lon="-4.30107">
        <ele>123.67</ele>
        <time>2013-04-17T13:36:47Z</time>
      </trkpt>
      <trkpt lat="48.23682" lon="-4.30092">
        <ele>124.63</ele>
        <time>2013-04-17T13:37:02Z</time>
      </trkpt>
      <trkpt lat="48.23675" lon="-4.30085">
        <ele>127.03</ele>
        <time>2013-04-17T13:37:10Z</time>
      </trkpt>
      <trkpt lat="48.2367" lon="-4.30081">
        <ele>127.51</ele>
        <time>2013-04-17T13:37:15Z</time>
      </trkpt>
      <trkpt lat="48.23657" lon="-4.3007">
        <ele>128.47</ele>
        <time>2013-04-17T13:37:29Z</time>
      </trkpt>
      <trkpt lat="48.23654" lon="-4.3008">
        <ele>129.92</ele>
        <time>2013-04-17T13:37:42Z</time>
      </trkpt>
      <trkpt lat="48.23653" lon="-4.30096">
        <ele>129.92</ele>
        <time>2013-04-17T13:37:56Z</time>
      </trkpt>
      <trkpt lat="48.23646" lon="-4.30121">
        <ele>131.84</ele>
        <time>2013-04-17T13:38:12Z</time>
      </trkpt>
      <trkpt lat="48.23639" lon="-4.30138">
        <ele>132.8</ele>
        <time>2013-04-17T13:38:24Z</time>
      </trkpt>
      <trkpt lat="48.23634" lon="-4.30151">
        <ele>132.8</ele>
        <time>2013-04-17T13:38:32Z</time>
      </trkpt>
      <trkpt lat="48.23633" lon="-4.30171">
        <ele>132.32</ele>
        <time>2013-04-17T13:38:43Z</time>
      </trkpt>
      <trkpt lat="48.23631" lon="-4.30185">
        <ele>132.32</ele>
        <time>2013-04-17T13:38:54Z</time>
      </trkpt>
      <trkpt lat="48.23633" lon="-4.30196">
        <ele>132.8</ele>
        <time>2013-04-17T13:39:00Z</time>
      </trkpt>
      <trkpt lat="48.23632" lon="-4.3022">
        <ele>132.8</ele>
        <time>2013-04-17T13:39:15Z</time>
      </trkpt>
      <trkpt lat="48.23632" lon="-4.30244">
        <ele>133.76</ele>
        <time>2013-04-17T13:39:28Z</time>
      </trkpt>
      <trkpt lat="48.23623" lon="-4.30263">
        <ele>135.2</ele>
        <time>2013-04-17T13:39:45Z</time>
      </trkpt>
      <trkpt lat="48.23622" lon="-4.30273">
        <ele>137.13</ele>
        <time>2013-04-17T13:39:55Z</time>
      </trkpt>
      <trkpt lat="48.23621" lon="-4.30283">
        <ele>139.05</ele>
        <time>2013-04-17T13:40:08Z</time>
      </trkpt>
      <trkpt lat="48.23619" lon="-4.30302">
        <ele>141.45</ele>
        <time>2013-04-17T13:40:24Z</time>
      </trkpt>
      <trkpt lat="48.23615" lon="-4.30316">
        <ele>144.82</ele>
        <time>2013-04-17T13:40:42Z</time>
      </trkpt>
      <trkpt lat="48.23616" lon="-4.30343">
        <ele>146.74</ele>
        <time>2013-04-17T13:41:01Z</time>
      </trkpt>
      <trkpt lat="48.23614" lon="-4.30348">
        <ele>148.18</ele>
        <time>2013-04-17T13:41:15Z</time>
      </trkpt>
      <trkpt lat="48.23607" lon="-4.30345">
        <ele>150.58</ele>
        <time>2013-04-17T13:41:27Z</time>
      </trkpt>
      <trkpt lat="48.23589" lon="-4.30344">
        <ele>152.51</ele>
        <time>2013-04-17T13:41:44Z</time>
      </trkpt>
      <trkpt lat="48.23584" lon="-4.30342">
        <ele>152.99</ele>
        <time>2013-04-17T13:41:48Z</time>
      </trkpt>
      <trkpt lat="48.23573" lon="-4.30345">
        <ele>152.99</ele>
        <time>2013-04-17T13:42:03Z</time>
      </trkpt>
      <trkpt lat="48.23573" lon="-4.30349">
        <ele>152.99</ele>
        <time>2013-04-17T13:42:06Z</time>
      </trkpt>
      <trkpt lat="48.23567" lon="-4.30371">
        <ele>153.47</ele>
        <time>2013-04-17T13:42:19Z</time>
      </trkpt>
      <trkpt lat="48.23564" lon="-4.3039">
        <ele>153.47</ele>
        <time>2013-04-17T13:42:31Z</time>
      </trkpt>
      <trkpt lat="48.2357" lon="-4.3042">
        <ele>152.99</ele>
        <time>2013-04-17T13:42:45Z</time>
      </trkpt>
      <trkpt lat="48.23575" lon="-4.30446">
        <ele>152.03</ele>
        <time>2013-04-17T13:43:03Z</time>
      </trkpt>
      <trkpt lat="48.23575" lon="-4.30476">
        <ele>151.54</ele>
        <time>2013-04-17T13:43:18Z</time>
      </trkpt>
      <trkpt lat="48.23575" lon="-4.30488">
        <ele>151.06</ele>
        <time>2013-04-17T13:43:23Z</time>
      </trkpt>
      <trkpt lat="48.23581" lon="-4.30509">
        <ele>150.58</ele>
        <time>2013-04-17T13:43:35Z</time>
      </trkpt>
      <trkpt lat="48.23581" lon="-4.3053">
        <ele>150.1</ele>
        <time>2013-04-17T13:43:47Z</time>
      </trkpt>
      <trkpt lat="48.23581" lon="-4.3053">
        <ele>150.58</ele>
        <time>2013-04-17T13:43:48Z</time>
      </trkpt>
      <trkpt lat="48.23587" lon="-4.30559">
        <ele>149.14</ele>
        <time>2013-04-17T13:44:04Z</time>
      </trkpt>
      <trkpt lat="48.23585" lon="-4.30592">
        <ele>148.66</ele>
        <time>2013-04-17T13:44:22Z</time>
      </trkpt>
      <trkpt lat="48.23589" lon="-4.30624">
        <ele>147.22</ele>
        <time>2013-04-17T13:44:39Z</time>
      </trkpt>
      <trkpt lat="48.23588" lon="-4.30629">
        <ele>147.22</ele>
        <time>2013-04-17T13:44:42Z</time>
      </trkpt>
      <trkpt lat="48.23592" lon="-4.30654">
        <ele>146.74</ele>
        <time>2013-04-17T13:44:59Z</time>
      </trkpt>
      <trkpt lat="48.23593" lon="-4.30659">
        <ele>145.78</ele>
        <time>2013-04-17T13:45:01Z</time>
      </trkpt>
      <trkpt lat="48.23594" lon="-4.30681">
        <ele>145.3</ele>
        <time>2013-04-17T13:45:12Z</time>
      </trkpt>
      <trkpt lat="48.23596" lon="-4.30708">
        <ele>142.41</ele>
        <time>2013-04-17T13:45:28Z</time>
      </trkpt>
      <trkpt lat="48.23597" lon="-4.30734">
        <ele>140.49</ele>
        <time>2013-04-17T13:45:45Z</time>
      </trkpt>
      <trkpt lat="48.23602" lon="-4.30772">
        <ele>137.61</ele>
        <time>2013-04-17T13:46:06Z</time>
      </trkpt>
      <trkpt lat="48.236" lon="-4.30796">
        <ele>135.68</ele>
        <time>2013-04-17T13:46:17Z</time>
      </trkpt>
      <trkpt lat="48.23596" lon="-4.30808">
        <ele>137.13</ele>
        <time>2013-04-17T13:46:32Z</time>
      </trkpt>
      <trkpt lat="48.23595" lon="-4.30809">
        <ele>136.64</ele>
        <time>2013-04-17T13:46:35Z</time>
      </trkpt>
      <trkpt lat="48.2359" lon="-4.30815">
        <ele>137.13</ele>
        <time>2013-04-17T13:46:43Z</time>
      </trkpt>
      <trkpt lat="48.23576" lon="-4.30822">
        <ele>138.57</ele>
        <time>2013-04-17T13:46:56Z</time>
      </trkpt>
      <trkpt lat="48.23569" lon="-4.30827">
        <ele>139.05</ele>
        <time>2013-04-17T13:47:06Z</time>
      </trkpt>
      <trkpt lat="48.23554" lon="-4.30834">
        <ele>138.57</ele>
        <time>2013-04-17T13:47:18Z</time>
      </trkpt>
      <trkpt lat="48.2355" lon="-4.30834">
        <ele>139.53</ele>
        <time>2013-04-17T13:47:22Z</time>
      </trkpt>
      <trkpt lat="48.23547" lon="-4.30834">
        <ele>139.53</ele>
        <time>2013-04-17T13:47:24Z</time>
      </trkpt>
      <trkpt lat="48.23532" lon="-4.30841">
        <ele>139.53</ele>
        <time>2013-04-17T13:47:38Z</time>
      </trkpt>
      <trkpt lat="48.2353" lon="-4.30847">
        <ele>139.05</ele>
        <time>2013-04-17T13:47:42Z</time>
      </trkpt>
      <trkpt lat="48.23526" lon="-4.30853">
        <ele>139.05</ele>
        <time>2013-04-17T13:47:46Z</time>
      </trkpt>
      <trkpt lat="48.2351" lon="-4.30874">
        <ele>139.53</ele>
        <time>2013-04-17T13:48:05Z</time>
      </trkpt>
      <trkpt lat="48.235" lon="-4.3089">
        <ele>140.01</ele>
        <time>2013-04-17T13:48:17Z</time>
      </trkpt>
      <trkpt lat="48.235" lon="-4.30891">
        <ele>140.01</ele>
        <time>2013-04-17T13:48:18Z</time>
      </trkpt>
      <trkpt lat="48.23497" lon="-4.309">
        <ele>139.53</ele>
        <time>2013-04-17T13:48:22Z</time>
      </trkpt>
      <trkpt lat="48.23489" lon="-4.30918">
        <ele>140.49</ele>
        <time>2013-04-17T13:48:37Z</time>
      </trkpt>
      <trkpt lat="48.23473" lon="-4.30937">
        <ele>140.49</ele>
        <time>2013-04-17T13:48:55Z</time>
      </trkpt>
      <trkpt lat="48.2347" lon="-4.30933">
        <ele>140.49</ele>
        <time>2013-04-17T13:49:02Z</time>
      </trkpt>
      <trkpt lat="48.2347" lon="-4.30928">
        <ele>141.45</ele>
        <time>2013-04-17T13:49:06Z</time>
      </trkpt>
      <trkpt lat="48.2347" lon="-4.3092">
        <ele>141.93</ele>
        <time>2013-04-17T13:49:11Z</time>
      </trkpt>
      <trkpt lat="48.23467" lon="-4.30901">
        <ele>142.89</ele>
        <time>2013-04-17T13:49:22Z</time>
      </trkpt>
      <trkpt lat="48.23467" lon="-4.30885">
        <ele>143.37</ele>
        <time>2013-04-17T13:49:31Z</time>
      </trkpt>
      <trkpt lat="48.23467" lon="-4.30882">
        <ele>143.85</ele>
        <time>2013-04-17T13:49:33Z</time>
      </trkpt>
      <trkpt lat="48.23468" lon="-4.30857">
        <ele>145.3</ele>
        <time>2013-04-17T13:49:47Z</time>
      </trkpt>
      <trkpt lat="48.23466" lon="-4.30832">
        <ele>146.74</ele>
        <time>2013-04-17T13:50:01Z</time>
      </trkpt>
      <trkpt lat="48.23466" lon="-4.30826">
        <ele>147.22</ele>
        <time>2013-04-17T13:50:04Z</time>
      </trkpt>
      <trkpt lat="48.23465" lon="-4.3082">
        <ele>147.7</ele>
        <time>2013-04-17T13:50:07Z</time>
      </trkpt>
      <trkpt lat="48.23465" lon="-4.30815">
        <ele>147.7</ele>
        <time>2013-04-17T13:50:10Z</time>
      </trkpt>
      <trkpt lat="48.23466" lon="-4.30812">
        <ele>148.18</ele>
        <time>2013-04-17T13:50:12Z</time>
      </trkpt>
      <trkpt lat="48.23465" lon="-4.30804">
        <ele>148.66</ele>
        <time>2013-04-17T13:50:17Z</time>
      </trkpt>
      <trkpt lat="48.23465" lon="-4.30794">
        <ele>149.14</ele>
        <time>2013-04-17T13:50:22Z</time>
      </trkpt>
      <trkpt lat="48.23465" lon="-4.30787">
        <ele>149.62</ele>
        <time>2013-04-17T13:50:26Z</time>
      </trkpt>
      <trkpt lat="48.23464" lon="-4.3078">
        <ele>149.62</ele>
        <time>2013-04-17T13:50:32Z</time>
      </trkpt>
      <trkpt lat="48.23464" lon="-4.30768">
        <ele>150.1</ele>
        <time>2013-04-17T13:50:39Z</time>
      </trkpt>
      <trkpt lat="48.23464" lon="-4.30759">
        <ele>150.58</ele>
        <time>2013-04-17T13:50:44Z</time>
      </trkpt>
      <trkpt lat="48.23464" lon="-4.30745">
        <ele>151.54</ele>
        <time>2013-04-17T13:50:52Z</time>
      </trkpt>
      <trkpt lat="48.23461" lon="-4.30729">
        <ele>152.51</ele>
        <time>2013-04-17T13:51:01Z</time>
      </trkpt>
      <trkpt lat="48.2346" lon="-4.30714">
        <ele>153.47</ele>
        <time>2013-04-17T13:51:10Z</time>
      </trkpt>
      <trkpt lat="48.23456" lon="-4.30683">
        <ele>154.91</ele>
        <time>2013-04-17T13:51:26Z</time>
      </trkpt>
      <trkpt lat="48.23457" lon="-4.30682">
        <ele>154.91</ele>
        <time>2013-04-17T13:51:27Z</time>
      </trkpt>
      <trkpt lat="48.23458" lon="-4.30656">
        <ele>155.39</ele>
        <time>2013-04-17T13:51:42Z</time>
      </trkpt>
      <trkpt lat="48.23458" lon="-4.30654">
        <ele>155.39</ele>
        <time>2013-04-17T13:51:43Z</time>
      </trkpt>
      <trkpt lat="48.23457" lon="-4.30638">
        <ele>155.39</ele>
        <time>2013-04-17T13:51:48Z</time>
      </trkpt>
      <trkpt lat="48.23456" lon="-4.30635">
        <ele>155.39</ele>
        <time>2013-04-17T13:51:50Z</time>
      </trkpt>
      <trkpt lat="48.23458" lon="-4.30625">
        <ele>155.87</ele>
        <time>2013-04-17T13:51:55Z</time>
      </trkpt>
      <trkpt lat="48.23457" lon="-4.30596">
        <ele>156.35</ele>
        <time>2013-04-17T13:52:10Z</time>
      </trkpt>
      <trkpt lat="48.23458" lon="-4.30586">
        <ele>156.83</ele>
        <time>2013-04-17T13:52:16Z</time>
      </trkpt>
      <trkpt lat="48.2346" lon="-4.30566">
        <ele>157.79</ele>
        <time>2013-04-17T13:52:28Z</time>
      </trkpt>
      <trkpt lat="48.2346" lon="-4.30561">
        <ele>158.75</ele>
        <time>2013-04-17T13:52:30Z</time>
      </trkpt>
      <trkpt lat="48.2346" lon="-4.30536">
        <ele>159.24</ele>
        <time>2013-04-17T13:52:44Z</time>
      </trkpt>
      <trkpt lat="48.23456" lon="-4.30513">
        <ele>160.68</ele>
        <time>2013-04-17T13:52:57Z</time>
      </trkpt>
      <trkpt lat="48.23454" lon="-4.30507">
        <ele>160.2</ele>
        <time>2013-04-17T13:53:00Z</time>
      </trkpt>
      <trkpt lat="48.23454" lon="-4.30482">
        <ele>161.16</ele>
        <time>2013-04-17T13:53:10Z</time>
      </trkpt>
      <trkpt lat="48.23453" lon="-4.30469">
        <ele>161.16</ele>
        <time>2013-04-17T13:53:16Z</time>
      </trkpt>
      <trkpt lat="48.23454" lon="-4.30448">
        <ele>161.16</ele>
        <time>2013-04-17T13:53:27Z</time>
      </trkpt>
      <trkpt lat="48.23455" lon="-4.30428">
        <ele>162.12</ele>
        <time>2013-04-17T13:53:39Z</time>
      </trkpt>
      <trkpt lat="48.23455" lon="-4.30415">
        <ele>162.12</ele>
        <time>2013-04-17T13:53:49Z</time>
      </trkpt>
      <trkpt lat="48.23453" lon="-4.30401">
        <ele>162.6</ele>
        <time>2013-04-17T13:53:55Z</time>
      </trkpt>
      <trkpt lat="48.23452" lon="-4.30389">
        <ele>163.08</ele>
        <time>2013-04-17T13:54:00Z</time>
      </trkpt>
      <trkpt lat="48.23449" lon="-4.30364">
        <ele>163.08</ele>
        <time>2013-04-17T13:54:13Z</time>
      </trkpt>
      <trkpt lat="48.23449" lon="-4.30358">
        <ele>162.6</ele>
        <time>2013-04-17T13:54:17Z</time>
      </trkpt>
      <trkpt lat="48.23449" lon="-4.30342">
        <ele>163.08</ele>
        <time>2013-04-17T13:54:25Z</time>
      </trkpt>
      <trkpt lat="48.23447" lon="-4.3032">
        <ele>163.56</ele>
        <time>2013-04-17T13:54:35Z</time>
      </trkpt>
      <trkpt lat="48.23447" lon="-4.303">
        <ele>164.04</ele>
        <time>2013-04-17T13:54:44Z</time>
      </trkpt>
      <trkpt lat="48.23448" lon="-4.30285">
        <ele>164.52</ele>
        <time>2013-04-17T13:54:53Z</time>
      </trkpt>
      <trkpt lat="48.23446" lon="-4.30267">
        <ele>164.04</ele>
        <time>2013-04-17T13:55:05Z</time>
      </trkpt>
      <trkpt lat="48.23447" lon="-4.30258">
        <ele>164.52</ele>
        <time>2013-04-17T13:55:10Z</time>
      </trkpt>
      <trkpt lat="48.23447" lon="-4.30253">
        <ele>164.52</ele>
        <time>2013-04-17T13:55:12Z</time>
      </trkpt>
      <trkpt lat="48.23452" lon="-4.30216">
        <ele>164.52</ele>
        <time>2013-04-17T13:55:26Z</time>
      </trkpt>
      <trkpt lat="48.23453" lon="-4.30206">
        <ele>164.52</ele>
        <time>2013-04-17T13:55:31Z</time>
      </trkpt>
      <trkpt lat="48.23454" lon="-4.30201">
        <ele>165</ele>
        <time>2013-04-17T13:55:34Z</time>
      </trkpt>
      <trkpt lat="48.23457" lon="-4.30189">
        <ele>164.52</ele>
        <time>2013-04-17T13:55:40Z</time>
      </trkpt>
      <trkpt lat="48.23456" lon="-4.30185">
        <ele>164.04</ele>
        <time>2013-04-17T13:55:42Z</time>
      </trkpt>
      <trkpt lat="48.23457" lon="-4.30172">
        <ele>164.52</ele>
        <time>2013-04-17T13:55:49Z</time>
      </trkpt>
      <trkpt lat="48.23458" lon="-4.30148">
        <ele>164.04</ele>
        <time>2013-04-17T13:56:01Z</time>
      </trkpt>
      <trkpt lat="48.23458" lon="-4.30125">
        <ele>164.52</ele>
        <time>2013-04-17T13:56:13Z</time>
      </trkpt>
      <trkpt lat="48.23454" lon="-4.30115">
        <ele>164.52</ele>
        <time>2013-04-17T13:56:17Z</time>
      </trkpt>
      <trkpt lat="48.23453" lon="-4.30108">
        <ele>164.52</ele>
        <time>2013-04-17T13:56:21Z</time>
      </trkpt>
      <trkpt lat="48.23453" lon="-4.30092">
        <ele>164.04</ele>
        <time>2013-04-17T13:56:28Z</time>
      </trkpt>
      <trkpt lat="48.23454" lon="-4.30079">
        <ele>164.52</ele>
        <time>2013-04-17T13:56:36Z</time>
      </trkpt>
      <trkpt lat="48.23454" lon="-4.30073">
        <ele>164.52</ele>
        <time>2013-04-17T13:56:40Z</time>
      </trkpt>
      <trkpt lat="48.23455" lon="-4.30062">
        <ele>164.04</ele>
        <time>2013-04-17T13:56:46Z</time>
      </trkpt>
      <trkpt lat="48.23454" lon="-4.30029">
        <ele>163.56</ele>
        <time>2013-04-17T13:57:01Z</time>
      </trkpt>
      <trkpt lat="48.23452" lon="-4.30012">
        <ele>163.56</ele>
        <time>2013-04-17T13:57:09Z</time>
      </trkpt>
      <trkpt lat="48.23453" lon="-4.30005">
        <ele>163.56</ele>
        <time>2013-04-17T13:57:12Z</time>
      </trkpt>
      <trkpt lat="48.23454" lon="-4.29979">
        <ele>162.6</ele>
        <time>2013-04-17T13:57:26Z</time>
      </trkpt>
      <trkpt lat="48.23453" lon="-4.29962">
        <ele>162.6</ele>
        <time>2013-04-17T13:57:33Z</time>
      </trkpt>
      <trkpt lat="48.23453" lon="-4.29958">
        <ele>162.6</ele>
        <time>2013-04-17T13:57:35Z</time>
      </trkpt>
      <trkpt lat="48.23452" lon="-4.29946">
        <ele>162.12</ele>
        <time>2013-04-17T13:57:41Z</time>
      </trkpt>
      <trkpt lat="48.23451" lon="-4.29938">
        <ele>162.12</ele>
        <time>2013-04-17T13:57:45Z</time>
      </trkpt>
      <trkpt lat="48.23451" lon="-4.29922">
        <ele>162.12</ele>
        <time>2013-04-17T13:57:53Z</time>
      </trkpt>
      <trkpt lat="48.23449" lon="-4.29903">
        <ele>162.12</ele>
        <time>2013-04-17T13:58:03Z</time>
      </trkpt>
      <trkpt lat="48.23451" lon="-4.29896">
        <ele>161.64</ele>
        <time>2013-04-17T13:58:07Z</time>
      </trkpt>
      <trkpt lat="48.23449" lon="-4.29885">
        <ele>161.64</ele>
        <time>2013-04-17T13:58:12Z</time>
      </trkpt>
      <trkpt lat="48.23449" lon="-4.29876">
        <ele>161.16</ele>
        <time>2013-04-17T13:58:16Z</time>
      </trkpt>
      <trkpt lat="48.23449" lon="-4.29871">
        <ele>160.68</ele>
        <time>2013-04-17T13:58:19Z</time>
      </trkpt>
      <trkpt lat="48.23451" lon="-4.29865">
        <ele>161.16</ele>
        <time>2013-04-17T13:58:23Z</time>
      </trkpt>
      <trkpt lat="48.23453" lon="-4.29846">
        <ele>161.16</ele>
        <time>2013-04-17T13:58:33Z</time>
      </trkpt>
      <trkpt lat="48.23454" lon="-4.29834">
        <ele>161.16</ele>
        <time>2013-04-17T13:58:38Z</time>
      </trkpt>
      <trkpt lat="48.23454" lon="-4.29829">
        <ele>161.16</ele>
        <time>2013-04-17T13:58:41Z</time>
      </trkpt>
      <trkpt lat="48.23453" lon="-4.298">
        <ele>160.68</ele>
        <time>2013-04-17T13:58:56Z</time>
      </trkpt>
      <trkpt lat="48.23454" lon="-4.29795">
        <ele>160.2</ele>
        <time>2013-04-17T13:58:58Z</time>
      </trkpt>
      <trkpt lat="48.23452" lon="-4.29773">
        <ele>159.24</ele>
        <time>2013-04-17T13:59:08Z</time>
      </trkpt>
      <trkpt lat="48.23454" lon="-4.29768">
        <ele>159.72</ele>
        <time>2013-04-17T13:59:11Z</time>
      </trkpt>
      <trkpt lat="48.23446" lon="-4.29731">
        <ele>158.27</ele>
        <time>2013-04-17T13:59:28Z</time>
      </trkpt>
      <trkpt lat="48.23444" lon="-4.29699">
        <ele>157.31</ele>
        <time>2013-04-17T13:59:44Z</time>
      </trkpt>
      <trkpt lat="48.23445" lon="-4.29692">
        <ele>157.31</ele>
        <time>2013-04-17T13:59:48Z</time>
      </trkpt>
      <trkpt lat="48.23446" lon="-4.29659">
        <ele>154.91</ele>
        <time>2013-04-17T14:00:05Z</time>
      </trkpt>
      <trkpt lat="48.23446" lon="-4.2965">
        <ele>154.91</ele>
        <time>2013-04-17T14:00:11Z</time>
      </trkpt>
      <trkpt lat="48.23447" lon="-4.29645">
        <ele>154.43</ele>
        <time>2013-04-17T14:00:13Z</time>
      </trkpt>
      <trkpt lat="48.23442" lon="-4.29632">
        <ele>154.43</ele>
        <time>2013-04-17T14:00:26Z</time>
      </trkpt>
      <trkpt lat="48.2344" lon="-4.2963">
        <ele>155.39</ele>
        <time>2013-04-17T14:00:30Z</time>
      </trkpt>
      <trkpt lat="48.23437" lon="-4.29629">
        <ele>155.87</ele>
        <time>2013-04-17T14:00:34Z</time>
      </trkpt>
      <trkpt lat="48.23428" lon="-4.2962">
        <ele>156.35</ele>
        <time>2013-04-17T14:00:42Z</time>
      </trkpt>
      <trkpt lat="48.23416" lon="-4.29601">
        <ele>156.35</ele>
        <time>2013-04-17T14:00:56Z</time>
      </trkpt>
      <trkpt lat="48.23411" lon="-4.29591">
        <ele>156.83</ele>
        <time>2013-04-17T14:01:01Z</time>
      </trkpt>
      <trkpt lat="48.23409" lon="-4.29584">
        <ele>156.83</ele>
        <time>2013-04-17T14:01:06Z</time>
      </trkpt>
      <trkpt lat="48.23408" lon="-4.29581">
        <ele>156.83</ele>
        <time>2013-04-17T14:01:22Z</time>
      </trkpt>
      <trkpt lat="48.23409" lon="-4.2958">
        <ele>155.87</ele>
        <time>2013-04-17T14:01:42Z</time>
      </trkpt>
      <trkpt lat="48.23409" lon="-4.2958">
        <ele>157.31</ele>
        <time>2013-04-17T14:02:11Z</time>
      </trkpt>
      <trkpt lat="48.2341" lon="-4.2957">
        <ele>156.83</ele>
        <time>2013-04-17T14:02:39Z</time>
      </trkpt>
      <trkpt lat="48.23414" lon="-4.2955">
        <ele>154.43</ele>
        <time>2013-04-17T14:02:52Z</time>
      </trkpt>
      <trkpt lat="48.23417" lon="-4.29529">
        <ele>151.54</ele>
        <time>2013-04-17T14:03:07Z</time>
      </trkpt>
      <trkpt lat="48.23423" lon="-4.29512">
        <ele>150.58</ele>
        <time>2013-04-17T14:03:16Z</time>
      </trkpt>
      <trkpt lat="48.23432" lon="-4.2948">
        <ele>147.7</ele>
        <time>2013-04-17T14:03:33Z</time>
      </trkpt>
      <trkpt lat="48.23437" lon="-4.29455">
        <ele>147.22</ele>
        <time>2013-04-17T14:03:46Z</time>
      </trkpt>
      <trkpt lat="48.2344" lon="-4.29444">
        <ele>147.7</ele>
        <time>2013-04-17T14:03:52Z</time>
      </trkpt>
      <trkpt lat="48.23447" lon="-4.29411">
        <ele>146.26</ele>
        <time>2013-04-17T14:04:10Z</time>
      </trkpt>
      <trkpt lat="48.23448" lon="-4.29379">
        <ele>144.34</ele>
        <time>2013-04-17T14:04:27Z</time>
      </trkpt>
      <trkpt lat="48.23451" lon="-4.29367">
        <ele>144.34</ele>
        <time>2013-04-17T14:04:33Z</time>
      </trkpt>
      <trkpt lat="48.23456" lon="-4.2935">
        <ele>143.37</ele>
        <time>2013-04-17T14:04:42Z</time>
      </trkpt>
      <trkpt lat="48.23462" lon="-4.29338">
        <ele>143.85</ele>
        <time>2013-04-17T14:04:49Z</time>
      </trkpt>
      <trkpt lat="48.23469" lon="-4.29316">
        <ele>143.85</ele>
        <time>2013-04-17T14:05:01Z</time>
      </trkpt>
      <trkpt lat="48.23475" lon="-4.29281">
        <ele>143.37</ele>
        <time>2013-04-17T14:05:19Z</time>
      </trkpt>
      <trkpt lat="48.23477" lon="-4.29252">
        <ele>143.85</ele>
        <time>2013-04-17T14:05:34Z</time>
      </trkpt>
      <trkpt lat="48.23478" lon="-4.29242">
        <ele>142.89</ele>
        <time>2013-04-17T14:05:39Z</time>
      </trkpt>
      <trkpt lat="48.23482" lon="-4.2923">
        <ele>142.89</ele>
        <time>2013-04-17T14:05:46Z</time>
      </trkpt>
      <trkpt lat="48.23487" lon="-4.29205">
        <ele>144.34</ele>
        <time>2013-04-17T14:06:00Z</time>
      </trkpt>
      <trkpt lat="48.2349" lon="-4.29195">
        <ele>143.37</ele>
        <time>2013-04-17T14:06:06Z</time>
      </trkpt>
      <trkpt lat="48.23498" lon="-4.29183">
        <ele>142.89</ele>
        <time>2013-04-17T14:06:14Z</time>
      </trkpt>
      <trkpt lat="48.23501" lon="-4.2918">
        <ele>141.93</ele>
        <time>2013-04-17T14:06:17Z</time>
      </trkpt>
      <trkpt lat="48.23503" lon="-4.29178">
        <ele>142.41</ele>
        <time>2013-04-17T14:06:19Z</time>
      </trkpt>
      <trkpt lat="48.23506" lon="-4.29175">
        <ele>141.93</ele>
        <time>2013-04-17T14:06:22Z</time>
      </trkpt>
      <trkpt lat="48.23512" lon="-4.29165">
        <ele>142.41</ele>
        <time>2013-04-17T14:06:30Z</time>
      </trkpt>
      <trkpt lat="48.23516" lon="-4.29159">
        <ele>142.89</ele>
        <time>2013-04-17T14:06:35Z</time>
      </trkpt>
      <trkpt lat="48.2352" lon="-4.29147">
        <ele>143.85</ele>
        <time>2013-04-17T14:06:43Z</time>
      </trkpt>
      <trkpt lat="48.23525" lon="-4.29143">
        <ele>143.85</ele>
        <time>2013-04-17T14:06:50Z</time>
      </trkpt>
      <trkpt lat="48.23526" lon="-4.29135">
        <ele>144.82</ele>
        <time>2013-04-17T14:06:55Z</time>
      </trkpt>
      <trkpt lat="48.23527" lon="-4.29121">
        <ele>146.74</ele>
        <time>2013-04-17T14:07:08Z</time>
      </trkpt>
      <trkpt lat="48.23528" lon="-4.29097">
        <ele>149.14</ele>
        <time>2013-04-17T14:07:22Z</time>
      </trkpt>
      <trkpt lat="48.23529" lon="-4.29083">
        <ele>149.62</ele>
        <time>2013-04-17T14:07:33Z</time>
      </trkpt>
      <trkpt lat="48.2353" lon="-4.29058">
        <ele>152.03</ele>
        <time>2013-04-17T14:07:48Z</time>
      </trkpt>
      <trkpt lat="48.23533" lon="-4.29053">
        <ele>152.03</ele>
        <time>2013-04-17T14:07:51Z</time>
      </trkpt>
      <trkpt lat="48.23532" lon="-4.29049">
        <ele>152.03</ele>
        <time>2013-04-17T14:07:53Z</time>
      </trkpt>
      <trkpt lat="48.23533" lon="-4.29046">
        <ele>152.03</ele>
        <time>2013-04-17T14:07:55Z</time>
      </trkpt>
      <trkpt lat="48.23534" lon="-4.29038">
        <ele>152.51</ele>
        <time>2013-04-17T14:08:00Z</time>
      </trkpt>
      <trkpt lat="48.23527" lon="-4.29019">
        <ele>152.51</ele>
        <time>2013-04-17T14:08:16Z</time>
      </trkpt>
      <trkpt lat="48.23527" lon="-4.29012">
        <ele>153.47</ele>
        <time>2013-04-17T14:08:20Z</time>
      </trkpt>
      <trkpt lat="48.23528" lon="-4.29008">
        <ele>153.47</ele>
        <time>2013-04-17T14:08:22Z</time>
      </trkpt>
      <trkpt lat="48.23526" lon="-4.29002">
        <ele>153.47</ele>
        <time>2013-04-17T14:08:26Z</time>
      </trkpt>
      <trkpt lat="48.23523" lon="-4.28994">
        <ele>152.51</ele>
        <time>2013-04-17T14:08:31Z</time>
      </trkpt>
      <trkpt lat="48.23523" lon="-4.2899">
        <ele>152.99</ele>
        <time>2013-04-17T14:08:34Z</time>
      </trkpt>
      <trkpt lat="48.23527" lon="-4.28983">
        <ele>152.99</ele>
        <time>2013-04-17T14:08:39Z</time>
      </trkpt>
      <trkpt lat="48.23528" lon="-4.28978">
        <ele>152.99</ele>
        <time>2013-04-17T14:08:42Z</time>
      </trkpt>
      <trkpt lat="48.2353" lon="-4.28951">
        <ele>154.91</ele>
        <time>2013-04-17T14:08:58Z</time>
      </trkpt>
      <trkpt lat="48.23538" lon="-4.28929">
        <ele>156.35</ele>
        <time>2013-04-17T14:09:14Z</time>
      </trkpt>
      <trkpt lat="48.2354" lon="-4.28924">
        <ele>155.87</ele>
        <time>2013-04-17T14:09:18Z</time>
      </trkpt>
      <trkpt lat="48.2354" lon="-4.28914">
        <ele>155.39</ele>
        <time>2013-04-17T14:09:24Z</time>
      </trkpt>
      <trkpt lat="48.23545" lon="-4.28893">
        <ele>153.95</ele>
        <time>2013-04-17T14:09:40Z</time>
      </trkpt>
      <trkpt lat="48.23544" lon="-4.28886">
        <ele>152.99</ele>
        <time>2013-04-17T14:09:45Z</time>
      </trkpt>
      <trkpt lat="48.23549" lon="-4.28877">
        <ele>152.51</ele>
        <time>2013-04-17T14:09:52Z</time>
      </trkpt>
      <trkpt lat="48.23554" lon="-4.28882">
        <ele>151.54</ele>
        <time>2013-04-17T14:10:00Z</time>
      </trkpt>
      <trkpt lat="48.23561" lon="-4.28889">
        <ele>150.58</ele>
        <time>2013-04-17T14:10:16Z</time>
      </trkpt>
      <trkpt lat="48.2356" lon="-4.28889">
        <ele>150.58</ele>
        <time>2013-04-17T14:10:42Z</time>
      </trkpt>
      <trkpt lat="48.2356" lon="-4.28888">
        <ele>151.06</ele>
        <time>2013-04-17T14:11:28Z</time>
      </trkpt>
      <trkpt lat="48.2356" lon="-4.28885">
        <ele>152.03</ele>
        <time>2013-04-17T14:11:44Z</time>
      </trkpt>
      <trkpt lat="48.23553" lon="-4.28877">
        <ele>152.03</ele>
        <time>2013-04-17T14:12:11Z</time>
      </trkpt>
      <trkpt lat="48.23548" lon="-4.28873">
        <ele>152.51</ele>
        <time>2013-04-17T14:12:22Z</time>
      </trkpt>
      <trkpt lat="48.23552" lon="-4.2885">
        <ele>152.99</ele>
        <time>2013-04-17T14:12:36Z</time>
      </trkpt>
      <trkpt lat="48.23554" lon="-4.28828">
        <ele>152.99</ele>
        <time>2013-04-17T14:12:48Z</time>
      </trkpt>
      <trkpt lat="48.23557" lon="-4.28792">
        <ele>152.51</ele>
        <time>2013-04-17T14:13:07Z</time>
      </trkpt>
      <trkpt lat="48.23561" lon="-4.28771">
        <ele>152.03</ele>
        <time>2013-04-17T14:13:18Z</time>
      </trkpt>
      <trkpt lat="48.23567" lon="-4.28745">
        <ele>151.06</ele>
        <time>2013-04-17T14:13:35Z</time>
      </trkpt>
      <trkpt lat="48.23566" lon="-4.28742">
        <ele>152.03</ele>
        <time>2013-04-17T14:13:37Z</time>
      </trkpt>
      <trkpt lat="48.23565" lon="-4.28726">
        <ele>152.03</ele>
        <time>2013-04-17T14:13:49Z</time>
      </trkpt>
      <trkpt lat="48.23573" lon="-4.28719">
        <ele>151.06</ele>
        <time>2013-04-17T14:13:59Z</time>
      </trkpt>
      <trkpt lat="48.2358" lon="-4.28712">
        <ele>149.14</ele>
        <time>2013-04-17T14:14:08Z</time>
      </trkpt>
      <trkpt lat="48.23588" lon="-4.28694">
        <ele>148.18</ele>
        <time>2013-04-17T14:14:22Z</time>
      </trkpt>
      <trkpt lat="48.23593" lon="-4.28683">
        <ele>148.18</ele>
        <time>2013-04-17T14:14:28Z</time>
      </trkpt>
      <trkpt lat="48.23594" lon="-4.28675">
        <ele>147.7</ele>
        <time>2013-04-17T14:14:32Z</time>
      </trkpt>
      <trkpt lat="48.23594" lon="-4.28668">
        <ele>148.18</ele>
        <time>2013-04-17T14:14:36Z</time>
      </trkpt>
      <trkpt lat="48.23596" lon="-4.28654">
        <ele>149.14</ele>
        <time>2013-04-17T14:14:44Z</time>
      </trkpt>
      <trkpt lat="48.23603" lon="-4.28623">
        <ele>148.66</ele>
        <time>2013-04-17T14:15:00Z</time>
      </trkpt>
      <trkpt lat="48.23607" lon="-4.28605">
        <ele>148.18</ele>
        <time>2013-04-17T14:15:10Z</time>
      </trkpt>
      <trkpt lat="48.23609" lon="-4.286">
        <ele>149.14</ele>
        <time>2013-04-17T14:15:13Z</time>
      </trkpt>
      <trkpt lat="48.23608" lon="-4.28596">
        <ele>149.62</ele>
        <time>2013-04-17T14:15:15Z</time>
      </trkpt>
      <trkpt lat="48.2361" lon="-4.28572">
        <ele>149.62</ele>
        <time>2013-04-17T14:15:27Z</time>
      </trkpt>
      <trkpt lat="48.23613" lon="-4.28559">
        <ele>149.62</ele>
        <time>2013-04-17T14:15:34Z</time>
      </trkpt>
      <trkpt lat="48.23613" lon="-4.28551">
        <ele>149.62</ele>
        <time>2013-04-17T14:15:38Z</time>
      </trkpt>
      <trkpt lat="48.23612" lon="-4.28523">
        <ele>150.58</ele>
        <time>2013-04-17T14:15:53Z</time>
      </trkpt>
      <trkpt lat="48.23621" lon="-4.2853">
        <ele>148.66</ele>
        <time>2013-04-17T14:16:10Z</time>
      </trkpt>
      <trkpt lat="48.23634" lon="-4.28532">
        <ele>148.66</ele>
        <time>2013-04-17T14:16:27Z</time>
      </trkpt>
      <trkpt lat="48.23653" lon="-4.28538">
        <ele>146.26</ele>
        <time>2013-04-17T14:16:45Z</time>
      </trkpt>
      <trkpt lat="48.23667" lon="-4.28541">
        <ele>144.82</ele>
        <time>2013-04-17T14:17:01Z</time>
      </trkpt>
      <trkpt lat="48.23684" lon="-4.28538">
        <ele>143.37</ele>
        <time>2013-04-17T14:17:16Z</time>
      </trkpt>
      <trkpt lat="48.23698" lon="-4.28538">
        <ele>143.37</ele>
        <time>2013-04-17T14:17:22Z</time>
      </trkpt>
      <trkpt lat="48.23702" lon="-4.28539">
        <ele>142.89</ele>
        <time>2013-04-17T14:17:24Z</time>
      </trkpt>
      <trkpt lat="48.23707" lon="-4.28538">
        <ele>143.37</ele>
        <time>2013-04-17T14:17:26Z</time>
      </trkpt>
      <trkpt lat="48.23724" lon="-4.2854">
        <ele>141.45</ele>
        <time>2013-04-17T14:17:43Z</time>
      </trkpt>
      <trkpt lat="48.2374" lon="-4.28546">
        <ele>141.45</ele>
        <time>2013-04-17T14:17:55Z</time>
      </trkpt>
      <trkpt lat="48.23752" lon="-4.28552">
        <ele>140.97</ele>
        <time>2013-04-17T14:18:06Z</time>
      </trkpt>
      <trkpt lat="48.23767" lon="-4.28554">
        <ele>140.97</ele>
        <time>2013-04-17T14:18:23Z</time>
      </trkpt>
      <trkpt lat="48.23785" lon="-4.2856">
        <ele>140.97</ele>
        <time>2013-04-17T14:18:39Z</time>
      </trkpt>
      <trkpt lat="48.23799" lon="-4.28563">
        <ele>140.97</ele>
        <time>2013-04-17T14:18:55Z</time>
      </trkpt>
      <trkpt lat="48.23827" lon="-4.28562">
        <ele>141.45</ele>
        <time>2013-04-17T14:19:15Z</time>
      </trkpt>
      <trkpt lat="48.23862" lon="-4.28572">
        <ele>141.93</ele>
        <time>2013-04-17T14:19:33Z</time>
      </trkpt>
      <trkpt lat="48.23884" lon="-4.28576">
        <ele>143.37</ele>
        <time>2013-04-17T14:19:51Z</time>
      </trkpt>
      <trkpt lat="48.23906" lon="-4.28575">
        <ele>142.89</ele>
        <time>2013-04-17T14:20:04Z</time>
      </trkpt>
      <trkpt lat="48.23924" lon="-4.2858">
        <ele>142.89</ele>
        <time>2013-04-17T14:20:19Z</time>
      </trkpt>
      <trkpt lat="48.23931" lon="-4.28582">
        <ele>141.45</ele>
        <time>2013-04-17T14:20:34Z</time>
      </trkpt>
      <trkpt lat="48.23932" lon="-4.28581">
        <ele>142.41</ele>
        <time>2013-04-17T14:21:30Z</time>
      </trkpt>
      <trkpt lat="48.23932" lon="-4.28584">
        <ele>142.41</ele>
        <time>2013-04-17T14:21:43Z</time>
      </trkpt>
      <trkpt lat="48.2393" lon="-4.28597">
        <ele>141.45</ele>
        <time>2013-04-17T14:21:51Z</time>
      </trkpt>
      <trkpt lat="48.23924" lon="-4.28614">
        <ele>140.97</ele>
        <time>2013-04-17T14:22:02Z</time>
      </trkpt>
      <trkpt lat="48.2392" lon="-4.28647">
        <ele>139.05</ele>
        <time>2013-04-17T14:22:18Z</time>
      </trkpt>
      <trkpt lat="48.23921" lon="-4.28654">
        <ele>139.05</ele>
        <time>2013-04-17T14:22:21Z</time>
      </trkpt>
      <trkpt lat="48.23916" lon="-4.28673">
        <ele>138.57</ele>
        <time>2013-04-17T14:22:31Z</time>
      </trkpt>
      <trkpt lat="48.23913" lon="-4.28684">
        <ele>137.61</ele>
        <time>2013-04-17T14:22:37Z</time>
      </trkpt>
      <trkpt lat="48.23909" lon="-4.28716">
        <ele>137.13</ele>
        <time>2013-04-17T14:22:54Z</time>
      </trkpt>
      <trkpt lat="48.23905" lon="-4.28732">
        <ele>136.64</ele>
        <time>2013-04-17T14:23:02Z</time>
      </trkpt>
      <trkpt lat="48.23901" lon="-4.28752">
        <ele>136.16</ele>
        <time>2013-04-17T14:23:15Z</time>
      </trkpt>
      <trkpt lat="48.239" lon="-4.28757">
        <ele>135.68</ele>
        <time>2013-04-17T14:23:18Z</time>
      </trkpt>
      <trkpt lat="48.23898" lon="-4.28765">
        <ele>135.2</ele>
        <time>2013-04-17T14:23:23Z</time>
      </trkpt>
      <trkpt lat="48.23899" lon="-4.2877">
        <ele>135.2</ele>
        <time>2013-04-17T14:23:25Z</time>
      </trkpt>
      <trkpt lat="48.23895" lon="-4.28802">
        <ele>133.28</ele>
        <time>2013-04-17T14:23:41Z</time>
      </trkpt>
      <trkpt lat="48.23894" lon="-4.28805">
        <ele>133.76</ele>
        <time>2013-04-17T14:23:44Z</time>
      </trkpt>
      <trkpt lat="48.23892" lon="-4.28832">
        <ele>132.8</ele>
        <time>2013-04-17T14:23:56Z</time>
      </trkpt>
      <trkpt lat="48.23889" lon="-4.28852">
        <ele>131.84</ele>
        <time>2013-04-17T14:24:06Z</time>
      </trkpt>
      <trkpt lat="48.23887" lon="-4.28865">
        <ele>131.84</ele>
        <time>2013-04-17T14:24:13Z</time>
      </trkpt>
      <trkpt lat="48.23884" lon="-4.28881">
        <ele>129.92</ele>
        <time>2013-04-17T14:24:22Z</time>
      </trkpt>
      <trkpt lat="48.23876" lon="-4.28916">
        <ele>128.95</ele>
        <time>2013-04-17T14:24:41Z</time>
      </trkpt>
      <trkpt lat="48.23875" lon="-4.28927">
        <ele>126.55</ele>
        <time>2013-04-17T14:24:46Z</time>
      </trkpt>
      <trkpt lat="48.23873" lon="-4.28956">
        <ele>126.55</ele>
        <time>2013-04-17T14:25:00Z</time>
      </trkpt>
      <trkpt lat="48.23877" lon="-4.28964">
        <ele>126.55</ele>
        <time>2013-04-17T14:25:05Z</time>
      </trkpt>
      <trkpt lat="48.23881" lon="-4.2897">
        <ele>127.03</ele>
        <time>2013-04-17T14:25:09Z</time>
      </trkpt>
      <trkpt lat="48.23897" lon="-4.28985">
        <ele>125.11</ele>
        <time>2013-04-17T14:25:23Z</time>
      </trkpt>
      <trkpt lat="48.23903" lon="-4.2899">
        <ele>125.11</ele>
        <time>2013-04-17T14:25:29Z</time>
      </trkpt>
      <trkpt lat="48.23916" lon="-4.29011">
        <ele>123.19</ele>
        <time>2013-04-17T14:25:45Z</time>
      </trkpt>
      <trkpt lat="48.23932" lon="-4.29035">
        <ele>121.74</ele>
        <time>2013-04-17T14:26:00Z</time>
      </trkpt>
      <trkpt lat="48.23938" lon="-4.29043">
        <ele>120.78</ele>
        <time>2013-04-17T14:26:06Z</time>
      </trkpt>
      <trkpt lat="48.23951" lon="-4.29058">
        <ele>118.86</ele>
        <time>2013-04-17T14:26:23Z</time>
      </trkpt>
      <trkpt lat="48.23951" lon="-4.29057">
        <ele>117.9</ele>
        <time>2013-04-17T14:26:58Z</time>
      </trkpt>
      <trkpt lat="48.23951" lon="-4.29056">
        <ele>117.9</ele>
        <time>2013-04-17T14:27:19Z</time>
      </trkpt>
      <trkpt lat="48.23953" lon="-4.29055">
        <ele>117.42</ele>
        <time>2013-04-17T14:27:27Z</time>
      </trkpt>
      <trkpt lat="48.23955" lon="-4.29057">
        <ele>118.38</ele>
        <time>2013-04-17T14:27:29Z</time>
      </trkpt>
      <trkpt lat="48.23957" lon="-4.29061">
        <ele>117.42</ele>
        <time>2013-04-17T14:27:32Z</time>
      </trkpt>
      <trkpt lat="48.23973" lon="-4.29082">
        <ele>114.05</ele>
        <time>2013-04-17T14:27:48Z</time>
      </trkpt>
      <trkpt lat="48.2398" lon="-4.29093">
        <ele>113.09</ele>
        <time>2013-04-17T14:27:54Z</time>
      </trkpt>
      <trkpt lat="48.24001" lon="-4.29106">
        <ele>111.65</ele>
        <time>2013-04-17T14:28:07Z</time>
      </trkpt>
      <trkpt lat="48.24008" lon="-4.29123">
        <ele>110.69</ele>
        <time>2013-04-17T14:28:22Z</time>
      </trkpt>
      <trkpt lat="48.24024" lon="-4.2914">
        <ele>108.77</ele>
        <time>2013-04-17T14:28:38Z</time>
      </trkpt>
      <trkpt lat="48.24044" lon="-4.29166">
        <ele>106.36</ele>
        <time>2013-04-17T14:29:00Z</time>
      </trkpt>
      <trkpt lat="48.24054" lon="-4.29175">
        <ele>105.4</ele>
        <time>2013-04-17T14:29:09Z</time>
      </trkpt>
      <trkpt lat="48.24058" lon="-4.29176">
        <ele>105.4</ele>
        <time>2013-04-17T14:29:12Z</time>
      </trkpt>
      <trkpt lat="48.24063" lon="-4.29182">
        <ele>103.96</ele>
        <time>2013-04-17T14:29:16Z</time>
      </trkpt>
      <trkpt lat="48.24072" lon="-4.29194">
        <ele>102.04</ele>
        <time>2013-04-17T14:29:27Z</time>
      </trkpt>
      <trkpt lat="48.24072" lon="-4.29195">
        <ele>102.52</ele>
        <time>2013-04-17T14:29:28Z</time>
      </trkpt>
      <trkpt lat="48.24073" lon="-4.29197">
        <ele>102.04</ele>
        <time>2013-04-17T14:29:29Z</time>
      </trkpt>
      <trkpt lat="48.24077" lon="-4.29206">
        <ele>102.04</ele>
        <time>2013-04-17T14:29:38Z</time>
      </trkpt>
      <trkpt lat="48.24088" lon="-4.29215">
        <ele>102.04</ele>
        <time>2013-04-17T14:29:45Z</time>
      </trkpt>
      <trkpt lat="48.24098" lon="-4.29222">
        <ele>100.6</ele>
        <time>2013-04-17T14:29:59Z</time>
      </trkpt>
      <trkpt lat="48.241" lon="-4.29223">
        <ele>100.11</ele>
        <time>2013-04-17T14:30:05Z</time>
      </trkpt>
      <trkpt lat="48.24111" lon="-4.29236">
        <ele>99.15</ele>
        <time>2013-04-17T14:30:18Z</time>
      </trkpt>
      <trkpt lat="48.24116" lon="-4.29241">
        <ele>99.15</ele>
        <time>2013-04-17T14:30:22Z</time>
      </trkpt>
      <trkpt lat="48.24126" lon="-4.29253">
        <ele>97.71</ele>
        <time>2013-04-17T14:30:32Z</time>
      </trkpt>
      <trkpt lat="48.24131" lon="-4.29255">
        <ele>97.71</ele>
        <time>2013-04-17T14:30:36Z</time>
      </trkpt>
      <trkpt lat="48.24149" lon="-4.29275">
        <ele>96.27</ele>
        <time>2013-04-17T14:30:53Z</time>
      </trkpt>
      <trkpt lat="48.24149" lon="-4.29277">
        <ele>95.79</ele>
        <time>2013-04-17T14:30:55Z</time>
      </trkpt>
      <trkpt lat="48.24151" lon="-4.29286">
        <ele>94.83</ele>
        <time>2013-04-17T14:31:00Z</time>
      </trkpt>
      <trkpt lat="48.24157" lon="-4.29304">
        <ele>94.35</ele>
        <time>2013-04-17T14:31:10Z</time>
      </trkpt>
      <trkpt lat="48.24163" lon="-4.29321">
        <ele>93.87</ele>
        <time>2013-04-17T14:31:20Z</time>
      </trkpt>
      <trkpt lat="48.24166" lon="-4.29326">
        <ele>92.42</ele>
        <time>2013-04-17T14:31:23Z</time>
      </trkpt>
      <trkpt lat="48.24177" lon="-4.29351">
        <ele>90.98</ele>
        <time>2013-04-17T14:31:38Z</time>
      </trkpt>
      <trkpt lat="48.24188" lon="-4.2937">
        <ele>89.54</ele>
        <time>2013-04-17T14:31:54Z</time>
      </trkpt>
      <trkpt lat="48.24188" lon="-4.29372">
        <ele>89.06</ele>
        <time>2013-04-17T14:31:56Z</time>
      </trkpt>
      <trkpt lat="48.24204" lon="-4.29388">
        <ele>87.62</ele>
        <time>2013-04-17T14:32:11Z</time>
      </trkpt>
      <trkpt lat="48.24218" lon="-4.29402">
        <ele>86.66</ele>
        <time>2013-04-17T14:32:25Z</time>
      </trkpt>
      <trkpt lat="48.24223" lon="-4.29408">
        <ele>86.18</ele>
        <time>2013-04-17T14:32:30Z</time>
      </trkpt>
      <trkpt lat="48.24244" lon="-4.29421">
        <ele>84.73</ele>
        <time>2013-04-17T14:32:44Z</time>
      </trkpt>
      <trkpt lat="48.24253" lon="-4.29427">
        <ele>84.25</ele>
        <time>2013-04-17T14:32:50Z</time>
      </trkpt>
      <trkpt lat="48.2426" lon="-4.29432">
        <ele>83.77</ele>
        <time>2013-04-17T14:32:54Z</time>
      </trkpt>
      <trkpt lat="48.24263" lon="-4.29436">
        <ele>84.25</ele>
        <time>2013-04-17T14:32:57Z</time>
      </trkpt>
      <trkpt lat="48.2428" lon="-4.29448">
        <ele>83.77</ele>
        <time>2013-04-17T14:33:12Z</time>
      </trkpt>
      <trkpt lat="48.24286" lon="-4.2946">
        <ele>82.81</ele>
        <time>2013-04-17T14:33:26Z</time>
      </trkpt>
      <trkpt lat="48.24286" lon="-4.29461">
        <ele>82.81</ele>
        <time>2013-04-17T14:33:27Z</time>
      </trkpt>
      <trkpt lat="48.24286" lon="-4.29464">
        <ele>82.81</ele>
        <time>2013-04-17T14:33:29Z</time>
      </trkpt>
      <trkpt lat="48.24283" lon="-4.29467">
        <ele>82.81</ele>
        <time>2013-04-17T14:33:33Z</time>
      </trkpt>
      <trkpt lat="48.2428" lon="-4.29479">
        <ele>82.81</ele>
        <time>2013-04-17T14:33:40Z</time>
      </trkpt>
      <trkpt lat="48.24275" lon="-4.2951">
        <ele>82.81</ele>
        <time>2013-04-17T14:33:56Z</time>
      </trkpt>
      <trkpt lat="48.24272" lon="-4.29519">
        <ele>83.77</ele>
        <time>2013-04-17T14:34:01Z</time>
      </trkpt>
      <trkpt lat="48.24268" lon="-4.29532">
        <ele>83.77</ele>
        <time>2013-04-17T14:34:09Z</time>
      </trkpt>
      <trkpt lat="48.24259" lon="-4.2956">
        <ele>86.18</ele>
        <time>2013-04-17T14:34:25Z</time>
      </trkpt>
      <trkpt lat="48.24253" lon="-4.29582">
        <ele>86.66</ele>
        <time>2013-04-17T14:34:37Z</time>
      </trkpt>
      <trkpt lat="48.24246" lon="-4.29603">
        <ele>88.58</ele>
        <time>2013-04-17T14:34:50Z</time>
      </trkpt>
      <trkpt lat="48.24236" lon="-4.29628">
        <ele>89.54</ele>
        <time>2013-04-17T14:35:05Z</time>
      </trkpt>
      <trkpt lat="48.24231" lon="-4.29639">
        <ele>90.5</ele>
        <time>2013-04-17T14:35:12Z</time>
      </trkpt>
      <trkpt lat="48.24225" lon="-4.29651">
        <ele>91.46</ele>
        <time>2013-04-17T14:35:19Z</time>
      </trkpt>
      <trkpt lat="48.24221" lon="-4.29658">
        <ele>91.46</ele>
        <time>2013-04-17T14:35:24Z</time>
      </trkpt>
      <trkpt lat="48.24219" lon="-4.29661">
        <ele>91.94</ele>
        <time>2013-04-17T14:35:26Z</time>
      </trkpt>
      <trkpt lat="48.24209" lon="-4.29685">
        <ele>93.39</ele>
        <time>2013-04-17T14:35:41Z</time>
      </trkpt>
      <trkpt lat="48.24196" lon="-4.29709">
        <ele>94.83</ele>
        <time>2013-04-17T14:35:57Z</time>
      </trkpt>
      <trkpt lat="48.24182" lon="-4.29738">
        <ele>96.75</ele>
        <time>2013-04-17T14:36:15Z</time>
      </trkpt>
      <trkpt lat="48.24173" lon="-4.29756">
        <ele>98.19</ele>
        <time>2013-04-17T14:36:27Z</time>
      </trkpt>
      <trkpt lat="48.2416" lon="-4.29782">
        <ele>99.63</ele>
        <time>2013-04-17T14:36:43Z</time>
      </trkpt>
      <trkpt lat="48.24157" lon="-4.29788">
        <ele>98.19</ele>
        <time>2013-04-17T14:36:46Z</time>
      </trkpt>
      <trkpt lat="48.24156" lon="-4.29791">
        <ele>99.15</ele>
        <time>2013-04-17T14:36:48Z</time>
      </trkpt>
      <trkpt lat="48.24148" lon="-4.29825">
        <ele>101.08</ele>
        <time>2013-04-17T14:37:05Z</time>
      </trkpt>
      <trkpt lat="48.24148" lon="-4.29828">
        <ele>101.08</ele>
        <time>2013-04-17T14:37:06Z</time>
      </trkpt>
      <trkpt lat="48.24146" lon="-4.29857">
        <ele>102.52</ele>
        <time>2013-04-17T14:37:21Z</time>
      </trkpt>
      <trkpt lat="48.24145" lon="-4.29861">
        <ele>102.04</ele>
        <time>2013-04-17T14:37:23Z</time>
      </trkpt>
      <trkpt lat="48.24144" lon="-4.29876">
        <ele>102.52</ele>
        <time>2013-04-17T14:37:30Z</time>
      </trkpt>
      <trkpt lat="48.24142" lon="-4.29908">
        <ele>103</ele>
        <time>2013-04-17T14:37:47Z</time>
      </trkpt>
      <trkpt lat="48.2414" lon="-4.2994">
        <ele>102.52</ele>
        <time>2013-04-17T14:38:02Z</time>
      </trkpt>
      <trkpt lat="48.24139" lon="-4.29945">
        <ele>103.96</ele>
        <time>2013-04-17T14:38:05Z</time>
      </trkpt>
      <trkpt lat="48.24136" lon="-4.29978">
        <ele>103.96</ele>
        <time>2013-04-17T14:38:21Z</time>
      </trkpt>
      <trkpt lat="48.24137" lon="-4.29988">
        <ele>103.48</ele>
        <time>2013-04-17T14:38:26Z</time>
      </trkpt>
      <trkpt lat="48.24139" lon="-4.29998">
        <ele>103.96</ele>
        <time>2013-04-17T14:38:32Z</time>
      </trkpt>
      <trkpt lat="48.24154" lon="-4.30006">
        <ele>102.52</ele>
        <time>2013-04-17T14:38:45Z</time>
      </trkpt>
      <trkpt lat="48.24169" lon="-4.30015">
        <ele>102.04</ele>
        <time>2013-04-17T14:38:57Z</time>
      </trkpt>
      <trkpt lat="48.24188" lon="-4.30021">
        <ele>100.11</ele>
        <time>2013-04-17T14:39:13Z</time>
      </trkpt>
      <trkpt lat="48.24189" lon="-4.30021">
        <ele>100.6</ele>
        <time>2013-04-17T14:39:14Z</time>
      </trkpt>
      <trkpt lat="48.24203" lon="-4.30026">
        <ele>98.19</ele>
        <time>2013-04-17T14:39:26Z</time>
      </trkpt>
      <trkpt lat="48.24224" lon="-4.30034">
        <ele>96.27</ele>
        <time>2013-04-17T14:39:43Z</time>
      </trkpt>
      <trkpt lat="48.24231" lon="-4.30038">
        <ele>94.35</ele>
        <time>2013-04-17T14:39:50Z</time>
      </trkpt>
      <trkpt lat="48.24253" lon="-4.30043">
        <ele>90.98</ele>
        <time>2013-04-17T14:40:06Z</time>
      </trkpt>
      <trkpt lat="48.24271" lon="-4.3005">
        <ele>89.54</ele>
        <time>2013-04-17T14:40:22Z</time>
      </trkpt>
      <trkpt lat="48.24296" lon="-4.30058">
        <ele>86.66</ele>
        <time>2013-04-17T14:40:42Z</time>
      </trkpt>
      <trkpt lat="48.24311" lon="-4.30065">
        <ele>84.25</ele>
        <time>2013-04-17T14:40:56Z</time>
      </trkpt>
      <trkpt lat="48.24318" lon="-4.3007">
        <ele>83.77</ele>
        <time>2013-04-17T14:41:03Z</time>
      </trkpt>
      <trkpt lat="48.24339" lon="-4.30077">
        <ele>81.37</ele>
        <time>2013-04-17T14:41:20Z</time>
      </trkpt>
      <trkpt lat="48.24357" lon="-4.30082">
        <ele>78.97</ele>
        <time>2013-04-17T14:41:36Z</time>
      </trkpt>
      <trkpt lat="48.2437" lon="-4.30086">
        <ele>76.56</ele>
        <time>2013-04-17T14:41:45Z</time>
      </trkpt>
      <trkpt lat="48.24374" lon="-4.30088">
        <ele>76.56</ele>
        <time>2013-04-17T14:41:48Z</time>
      </trkpt>
      <trkpt lat="48.24393" lon="-4.30094">
        <ele>74.16</ele>
        <time>2013-04-17T14:42:03Z</time>
      </trkpt>
      <trkpt lat="48.24402" lon="-4.30098">
        <ele>73.68</ele>
        <time>2013-04-17T14:42:09Z</time>
      </trkpt>
      <trkpt lat="48.24406" lon="-4.30101">
        <ele>73.2</ele>
        <time>2013-04-17T14:42:12Z</time>
      </trkpt>
      <trkpt lat="48.2441" lon="-4.30111">
        <ele>73.2</ele>
        <time>2013-04-17T14:42:17Z</time>
      </trkpt>
      <trkpt lat="48.24413" lon="-4.30117">
        <ele>72.72</ele>
        <time>2013-04-17T14:42:21Z</time>
      </trkpt>
      <trkpt lat="48.24415" lon="-4.30122">
        <ele>72.72</ele>
        <time>2013-04-17T14:42:24Z</time>
      </trkpt>
      <trkpt lat="48.24417" lon="-4.30127">
        <ele>71.27</ele>
        <time>2013-04-17T14:42:28Z</time>
      </trkpt>
      <trkpt lat="48.24418" lon="-4.30159">
        <ele>71.76</ele>
        <time>2013-04-17T14:42:43Z</time>
      </trkpt>
      <trkpt lat="48.24418" lon="-4.30166">
        <ele>71.76</ele>
        <time>2013-04-17T14:42:46Z</time>
      </trkpt>
      <trkpt lat="48.24423" lon="-4.30189">
        <ele>71.76</ele>
        <time>2013-04-17T14:43:00Z</time>
      </trkpt>
      <trkpt lat="48.24431" lon="-4.30199">
        <ele>71.76</ele>
        <time>2013-04-17T14:43:10Z</time>
      </trkpt>
      <trkpt lat="48.24448" lon="-4.30204">
        <ele>70.79</ele>
        <time>2013-04-17T14:43:26Z</time>
      </trkpt>
      <trkpt lat="48.24459" lon="-4.30206">
        <ele>70.31</ele>
        <time>2013-04-17T14:43:36Z</time>
      </trkpt>
      <trkpt lat="48.24472" lon="-4.30207">
        <ele>70.31</ele>
        <time>2013-04-17T14:43:46Z</time>
      </trkpt>
      <trkpt lat="48.24495" lon="-4.30207">
        <ele>69.83</ele>
        <time>2013-04-17T14:44:03Z</time>
      </trkpt>
      <trkpt lat="48.24516" lon="-4.30207">
        <ele>69.35</ele>
        <time>2013-04-17T14:44:18Z</time>
      </trkpt>
      <trkpt lat="48.24528" lon="-4.30208">
        <ele>68.39</ele>
        <time>2013-04-17T14:44:29Z</time>
      </trkpt>
      <trkpt lat="48.24551" lon="-4.30211">
        <ele>67.43</ele>
        <time>2013-04-17T14:44:46Z</time>
      </trkpt>
      <trkpt lat="48.24554" lon="-4.30212">
        <ele>67.43</ele>
        <time>2013-04-17T14:44:48Z</time>
      </trkpt>
      <trkpt lat="48.24576" lon="-4.30212">
        <ele>65.99</ele>
        <time>2013-04-17T14:45:04Z</time>
      </trkpt>
      <trkpt lat="48.24606" lon="-4.30211">
        <ele>65.03</ele>
        <time>2013-04-17T14:45:20Z</time>
      </trkpt>
      <trkpt lat="48.2463" lon="-4.30214">
        <ele>64.07</ele>
        <time>2013-04-17T14:45:39Z</time>
      </trkpt>
      <trkpt lat="48.24651" lon="-4.30221">
        <ele>63.1</ele>
        <time>2013-04-17T14:45:56Z</time>
      </trkpt>
      <trkpt lat="48.24668" lon="-4.30238">
        <ele>63.1</ele>
        <time>2013-04-17T14:46:13Z</time>
      </trkpt>
      <trkpt lat="48.24691" lon="-4.3024">
        <ele>64.55</ele>
        <time>2013-04-17T14:46:30Z</time>
      </trkpt>
      <trkpt lat="48.24706" lon="-4.30244">
        <ele>65.51</ele>
        <time>2013-04-17T14:46:44Z</time>
      </trkpt>
      <trkpt lat="48.24708" lon="-4.30244">
        <ele>65.51</ele>
        <time>2013-04-17T14:46:45Z</time>
      </trkpt>
      <trkpt lat="48.24729" lon="-4.3024">
        <ele>66.47</ele>
        <time>2013-04-17T14:47:00Z</time>
      </trkpt>
      <trkpt lat="48.24732" lon="-4.3024">
        <ele>66.47</ele>
        <time>2013-04-17T14:47:02Z</time>
      </trkpt>
      <trkpt lat="48.24751" lon="-4.30237">
        <ele>66.47</ele>
        <time>2013-04-17T14:47:14Z</time>
      </trkpt>
      <trkpt lat="48.24773" lon="-4.30243">
        <ele>68.87</ele>
        <time>2013-04-17T14:47:30Z</time>
      </trkpt>
      <trkpt lat="48.2479" lon="-4.30245">
        <ele>68.39</ele>
        <time>2013-04-17T14:47:42Z</time>
      </trkpt>
      <trkpt lat="48.24809" lon="-4.3025">
        <ele>69.83</ele>
        <time>2013-04-17T14:47:58Z</time>
      </trkpt>
      <trkpt lat="48.2481" lon="-4.30254">
        <ele>70.31</ele>
        <time>2013-04-17T14:48:01Z</time>
      </trkpt>
      <trkpt lat="48.24814" lon="-4.30268">
        <ele>70.79</ele>
        <time>2013-04-17T14:48:09Z</time>
      </trkpt>
      <trkpt lat="48.24817" lon="-4.30299">
        <ele>70.31</ele>
        <time>2013-04-17T14:48:24Z</time>
      </trkpt>
      <trkpt lat="48.24817" lon="-4.30311">
        <ele>70.31</ele>
        <time>2013-04-17T14:48:30Z</time>
      </trkpt>
      <trkpt lat="48.24818" lon="-4.30331">
        <ele>68.87</ele>
        <time>2013-04-17T14:48:40Z</time>
      </trkpt>
      <trkpt lat="48.24819" lon="-4.30357">
        <ele>67.43</ele>
        <time>2013-04-17T14:48:52Z</time>
      </trkpt>
      <trkpt lat="48.2482" lon="-4.30389">
        <ele>69.35</ele>
        <time>2013-04-17T14:49:07Z</time>
      </trkpt>
      <trkpt lat="48.24819" lon="-4.30425">
        <ele>68.87</ele>
        <time>2013-04-17T14:49:24Z</time>
      </trkpt>
      <trkpt lat="48.24818" lon="-4.30459">
        <ele>65.99</ele>
        <time>2013-04-17T14:49:40Z</time>
      </trkpt>
      <trkpt lat="48.24818" lon="-4.30476">
        <ele>65.03</ele>
        <time>2013-04-17T14:49:49Z</time>
      </trkpt>
      <trkpt lat="48.24818" lon="-4.3048">
        <ele>65.99</ele>
        <time>2013-04-17T14:49:51Z</time>
      </trkpt>
      <trkpt lat="48.24815" lon="-4.30504">
        <ele>65.51</ele>
        <time>2013-04-17T14:50:03Z</time>
      </trkpt>
      <trkpt lat="48.24813" lon="-4.30522">
        <ele>64.07</ele>
        <time>2013-04-17T14:50:12Z</time>
      </trkpt>
      <trkpt lat="48.2481" lon="-4.30557">
        <ele>64.07</ele>
        <time>2013-04-17T14:50:29Z</time>
      </trkpt>
      <trkpt lat="48.24809" lon="-4.30568">
        <ele>62.62</ele>
        <time>2013-04-17T14:50:34Z</time>
      </trkpt>
      <trkpt lat="48.24807" lon="-4.30601">
        <ele>62.62</ele>
        <time>2013-04-17T14:50:50Z</time>
      </trkpt>
      <trkpt lat="48.24807" lon="-4.30611">
        <ele>61.66</ele>
        <time>2013-04-17T14:50:55Z</time>
      </trkpt>
      <trkpt lat="48.24804" lon="-4.30649">
        <ele>61.66</ele>
        <time>2013-04-17T14:51:14Z</time>
      </trkpt>
      <trkpt lat="48.24803" lon="-4.30655">
        <ele>60.22</ele>
        <time>2013-04-17T14:51:17Z</time>
      </trkpt>
      <trkpt lat="48.24803" lon="-4.3066">
        <ele>60.7</ele>
        <time>2013-04-17T14:51:20Z</time>
      </trkpt>
      <trkpt lat="48.24801" lon="-4.30693">
        <ele>59.74</ele>
        <time>2013-04-17T14:51:37Z</time>
      </trkpt>
      <trkpt lat="48.24799" lon="-4.30704">
        <ele>59.26</ele>
        <time>2013-04-17T14:51:42Z</time>
      </trkpt>
      <trkpt lat="48.248" lon="-4.30711">
        <ele>58.3</ele>
        <time>2013-04-17T14:51:46Z</time>
      </trkpt>
      <trkpt lat="48.24793" lon="-4.30749">
        <ele>57.82</ele>
        <time>2013-04-17T14:52:04Z</time>
      </trkpt>
      <trkpt lat="48.24788" lon="-4.30788">
        <ele>58.3</ele>
        <time>2013-04-17T14:52:23Z</time>
      </trkpt>
      <trkpt lat="48.24787" lon="-4.30796">
        <ele>56.37</ele>
        <time>2013-04-17T14:52:27Z</time>
      </trkpt>
      <trkpt lat="48.24782" lon="-4.30814">
        <ele>55.89</ele>
        <time>2013-04-17T14:52:37Z</time>
      </trkpt>
      <trkpt lat="48.24779" lon="-4.30827">
        <ele>56.86</ele>
        <time>2013-04-17T14:52:44Z</time>
      </trkpt>
      <trkpt lat="48.24769" lon="-4.30849">
        <ele>56.37</ele>
        <time>2013-04-17T14:52:58Z</time>
      </trkpt>
      <trkpt lat="48.24763" lon="-4.3086">
        <ele>58.3</ele>
        <time>2013-04-17T14:53:05Z</time>
      </trkpt>
      <trkpt lat="48.24762" lon="-4.30868">
        <ele>55.89</ele>
        <time>2013-04-17T14:53:09Z</time>
      </trkpt>
      <trkpt lat="48.24759" lon="-4.30883">
        <ele>56.86</ele>
        <time>2013-04-17T14:53:17Z</time>
      </trkpt>
      <trkpt lat="48.24756" lon="-4.30894">
        <ele>56.86</ele>
        <time>2013-04-17T14:53:22Z</time>
      </trkpt>
      <trkpt lat="48.24753" lon="-4.30904">
        <ele>56.86</ele>
        <time>2013-04-17T14:53:27Z</time>
      </trkpt>
      <trkpt lat="48.24752" lon="-4.30916">
        <ele>56.86</ele>
        <time>2013-04-17T14:53:33Z</time>
      </trkpt>
      <trkpt lat="48.24748" lon="-4.30955">
        <ele>58.3</ele>
        <time>2013-04-17T14:53:52Z</time>
      </trkpt>
      <trkpt lat="48.24746" lon="-4.30982">
        <ele>58.3</ele>
        <time>2013-04-17T14:54:06Z</time>
      </trkpt>
      <trkpt lat="48.24744" lon="-4.31015">
        <ele>59.74</ele>
        <time>2013-04-17T14:54:22Z</time>
      </trkpt>
      <trkpt lat="48.2474" lon="-4.31036">
        <ele>60.22</ele>
        <time>2013-04-17T14:54:33Z</time>
      </trkpt>
      <trkpt lat="48.24735" lon="-4.31051">
        <ele>60.22</ele>
        <time>2013-04-17T14:54:41Z</time>
      </trkpt>
      <trkpt lat="48.24734" lon="-4.31059">
        <ele>60.7</ele>
        <time>2013-04-17T14:54:45Z</time>
      </trkpt>
      <trkpt lat="48.24728" lon="-4.31086">
        <ele>61.66</ele>
        <time>2013-04-17T14:55:00Z</time>
      </trkpt>
      <trkpt lat="48.24725" lon="-4.31115">
        <ele>62.14</ele>
        <time>2013-04-17T14:55:14Z</time>
      </trkpt>
      <trkpt lat="48.24724" lon="-4.31125">
        <ele>61.18</ele>
        <time>2013-04-17T14:55:19Z</time>
      </trkpt>
      <trkpt lat="48.24722" lon="-4.31159">
        <ele>61.18</ele>
        <time>2013-04-17T14:55:35Z</time>
      </trkpt>
      <trkpt lat="48.24721" lon="-4.31194">
        <ele>61.66</ele>
        <time>2013-04-17T14:55:52Z</time>
      </trkpt>
      <trkpt lat="48.24716" lon="-4.31228">
        <ele>62.62</ele>
        <time>2013-04-17T14:56:09Z</time>
      </trkpt>
      <trkpt lat="48.24709" lon="-4.31259">
        <ele>62.14</ele>
        <time>2013-04-17T14:56:24Z</time>
      </trkpt>
      <trkpt lat="48.24704" lon="-4.31288">
        <ele>63.1</ele>
        <time>2013-04-17T14:56:40Z</time>
      </trkpt>
      <trkpt lat="48.24701" lon="-4.31302">
        <ele>63.1</ele>
        <time>2013-04-17T14:56:47Z</time>
      </trkpt>
      <trkpt lat="48.24701" lon="-4.31309">
        <ele>63.58</ele>
        <time>2013-04-17T14:56:50Z</time>
      </trkpt>
      <trkpt lat="48.247" lon="-4.31316">
        <ele>63.58</ele>
        <time>2013-04-17T14:56:54Z</time>
      </trkpt>
      <trkpt lat="48.24698" lon="-4.31326">
        <ele>65.03</ele>
        <time>2013-04-17T14:56:59Z</time>
      </trkpt>
      <trkpt lat="48.24692" lon="-4.31349">
        <ele>65.51</ele>
        <time>2013-04-17T14:57:12Z</time>
      </trkpt>
      <trkpt lat="48.24691" lon="-4.31356">
        <ele>64.55</ele>
        <time>2013-04-17T14:57:16Z</time>
      </trkpt>
      <trkpt lat="48.24689" lon="-4.31364">
        <ele>64.07</ele>
        <time>2013-04-17T14:57:21Z</time>
      </trkpt>
      <trkpt lat="48.24687" lon="-4.31376">
        <ele>65.03</ele>
        <time>2013-04-17T14:57:27Z</time>
      </trkpt>
      <trkpt lat="48.24682" lon="-4.31394">
        <ele>68.39</ele>
        <time>2013-04-17T14:57:37Z</time>
      </trkpt>
      <trkpt lat="48.24682" lon="-4.31396">
        <ele>68.39</ele>
        <time>2013-04-17T14:57:38Z</time>
      </trkpt>
      <trkpt lat="48.2468" lon="-4.31412">
        <ele>66.47</ele>
        <time>2013-04-17T14:57:46Z</time>
      </trkpt>
      <trkpt lat="48.24672" lon="-4.31438">
        <ele>68.39</ele>
        <time>2013-04-17T14:58:00Z</time>
      </trkpt>
      <trkpt lat="48.24665" lon="-4.31454">
        <ele>66.95</ele>
        <time>2013-04-17T14:58:10Z</time>
      </trkpt>
      <trkpt lat="48.24661" lon="-4.31466">
        <ele>67.43</ele>
        <time>2013-04-17T14:58:16Z</time>
      </trkpt>
      <trkpt lat="48.24657" lon="-4.31475">
        <ele>68.39</ele>
        <time>2013-04-17T14:58:22Z</time>
      </trkpt>
      <trkpt lat="48.24643" lon="-4.31507">
        <ele>68.39</ele>
        <time>2013-04-17T14:58:40Z</time>
      </trkpt>
      <trkpt lat="48.2463" lon="-4.31542">
        <ele>68.87</ele>
        <time>2013-04-17T14:58:59Z</time>
      </trkpt>
      <trkpt lat="48.24618" lon="-4.31567">
        <ele>69.83</ele>
        <time>2013-04-17T14:59:14Z</time>
      </trkpt>
      <trkpt lat="48.24608" lon="-4.31598">
        <ele>69.83</ele>
        <time>2013-04-17T14:59:31Z</time>
      </trkpt>
      <trkpt lat="48.24601" lon="-4.31612">
        <ele>69.83</ele>
        <time>2013-04-17T14:59:40Z</time>
      </trkpt>
      <trkpt lat="48.24598" lon="-4.31623">
        <ele>69.83</ele>
        <time>2013-04-17T14:59:46Z</time>
      </trkpt>
      <trkpt lat="48.24604" lon="-4.31655">
        <ele>70.31</ele>
        <time>2013-04-17T15:00:00Z</time>
      </trkpt>
      <trkpt lat="48.24613" lon="-4.31656">
        <ele>69.83</ele>
        <time>2013-04-17T15:00:15Z</time>
      </trkpt>
      <trkpt lat="48.24613" lon="-4.31656">
        <ele>70.79</ele>
        <time>2013-04-17T15:00:27Z</time>
      </trkpt>
    </trkseg>
  </trk>
</gpx>